<?xml version="1.0" encoding="UTF-8" standalone="no" ?>
<gpx xmlns="http://www.topografix.com/GPX/1/1" xmlns:xsi="http://www.w3.org/2001/XMLSchema-instance" xsi:schemaLocation="http://www.topografix.com/GPX/1/1 http://www.topografix.com/GPX/1/1/gpx.xsd" version="1.1" creator="VisuGPX - https://www.visugpx.com">
  <metadata>
    <name>La croix de Rognac</name>
    <desc><![CDATA[Départ du cimetière du haut de Velaux. Sans difficulté particulière. Attention au vent qui peut souffler très fort sur le plateau. Il n'y a plus trace des différents incendies qui ont marqué le paysage il y a quelques années.]]></desc>
  </metadata>
  <wpt lat="43.49065" lon="5.24448">
    <ele>178.309525</ele>
    <name><![CDATA[Croix reco]]></name>
    <type><![CDATA[user]]></type>
  </wpt>
  <wpt lat="43.48392" lon="5.2593">
    <ele>191.587097</ele>
    <name><![CDATA[Faille]]></name>
    <type><![CDATA[user]]></type>
  </wpt>
  <wpt lat="43.51596" lon="5.26744">
    <ele>120.72982</ele>
    <name><![CDATA[Goudron]]></name>
    <type><![CDATA[user]]></type>
  </wpt>
  <wpt lat="43.49556" lon="5.26975">
    <ele>268.62109375</ele>
    <name><![CDATA[Repas-reco]]></name>
    <type><![CDATA[user]]></type>
  </wpt>
  <trk>
    <name><![CDATA[La croix de Rognac-Reco 2019]]></name>
    <trkseg>
      <trkpt lat="43.51945" lon="5.25801">
        <ele>101.58</ele>
        <time>2019-02-03T07:29:30Z</time>
      </trkpt>
      <trkpt lat="43.51944" lon="5.25801">
        <ele>102.83</ele>
        <time>2019-02-03T07:29:53Z</time>
      </trkpt>
      <trkpt lat="43.51946" lon="5.25799">
        <ele>102.45</ele>
        <time>2019-02-03T07:30:16Z</time>
      </trkpt>
      <trkpt lat="43.51949" lon="5.25798">
        <ele>101.78</ele>
        <time>2019-02-03T07:30:38Z</time>
      </trkpt>
      <trkpt lat="43.51951" lon="5.25794">
        <ele>103.28</ele>
        <time>2019-02-03T07:31:08Z</time>
      </trkpt>
      <trkpt lat="43.51953" lon="5.25783">
        <ele>101.86</ele>
        <time>2019-02-03T07:31:17Z</time>
      </trkpt>
      <trkpt lat="43.51946" lon="5.25776">
        <ele>100.57</ele>
        <time>2019-02-03T07:31:24Z</time>
      </trkpt>
      <trkpt lat="43.51942" lon="5.25772">
        <ele>100.17</ele>
        <time>2019-02-03T07:31:28Z</time>
      </trkpt>
      <trkpt lat="43.51928" lon="5.25757">
        <ele>99.96</ele>
        <time>2019-02-03T07:31:41Z</time>
      </trkpt>
      <trkpt lat="43.51924" lon="5.25753">
        <ele>99.78</ele>
        <time>2019-02-03T07:31:44Z</time>
      </trkpt>
      <trkpt lat="43.51915" lon="5.25736">
        <ele>98.7</ele>
        <time>2019-02-03T07:31:56Z</time>
      </trkpt>
      <trkpt lat="43.51889" lon="5.25735">
        <ele>98.64</ele>
        <time>2019-02-03T07:32:14Z</time>
      </trkpt>
      <trkpt lat="43.51865" lon="5.25737">
        <ele>99.11</ele>
        <time>2019-02-03T07:32:30Z</time>
      </trkpt>
      <trkpt lat="43.51852" lon="5.25761">
        <ele>97.9</ele>
        <time>2019-02-03T07:32:46Z</time>
      </trkpt>
      <trkpt lat="43.51845" lon="5.25789">
        <ele>95.26</ele>
        <time>2019-02-03T07:33:02Z</time>
      </trkpt>
      <trkpt lat="43.51834" lon="5.25819">
        <ele>95.48</ele>
        <time>2019-02-03T07:33:17Z</time>
      </trkpt>
      <trkpt lat="43.51821" lon="5.25848">
        <ele>92.69</ele>
        <time>2019-02-03T07:33:32Z</time>
      </trkpt>
      <trkpt lat="43.51808" lon="5.25867">
        <ele>90.69</ele>
        <time>2019-02-03T07:33:45Z</time>
      </trkpt>
      <trkpt lat="43.51792" lon="5.25883">
        <ele>87.64</ele>
        <time>2019-02-03T07:34:00Z</time>
      </trkpt>
      <trkpt lat="43.51773" lon="5.25896">
        <ele>86.01</ele>
        <time>2019-02-03T07:34:13Z</time>
      </trkpt>
      <trkpt lat="43.51754" lon="5.25908">
        <ele>86.64</ele>
        <time>2019-02-03T07:34:26Z</time>
      </trkpt>
      <trkpt lat="43.51744" lon="5.25913">
        <ele>85.68</ele>
        <time>2019-02-03T07:34:32Z</time>
      </trkpt>
      <trkpt lat="43.51725" lon="5.25926">
        <ele>83.78</ele>
        <time>2019-02-03T07:34:47Z</time>
      </trkpt>
      <trkpt lat="43.51706" lon="5.25932">
        <ele>83.83</ele>
        <time>2019-02-03T07:35:01Z</time>
      </trkpt>
      <trkpt lat="43.51677" lon="5.25934">
        <ele>83.36</ele>
        <time>2019-02-03T07:35:21Z</time>
      </trkpt>
      <trkpt lat="43.5165" lon="5.25929">
        <ele>80.92</ele>
        <time>2019-02-03T07:35:38Z</time>
      </trkpt>
      <trkpt lat="43.51627" lon="5.25929">
        <ele>81.54</ele>
        <time>2019-02-03T07:35:53Z</time>
      </trkpt>
      <trkpt lat="43.51607" lon="5.25934">
        <ele>81.51</ele>
        <time>2019-02-03T07:36:06Z</time>
      </trkpt>
      <trkpt lat="43.51579" lon="5.2594">
        <ele>80.63</ele>
        <time>2019-02-03T07:36:24Z</time>
      </trkpt>
      <trkpt lat="43.51548" lon="5.25946">
        <ele>80.34</ele>
        <time>2019-02-03T07:36:43Z</time>
      </trkpt>
      <trkpt lat="43.51521" lon="5.2595">
        <ele>78.9</ele>
        <time>2019-02-03T07:37:00Z</time>
      </trkpt>
      <trkpt lat="43.51498" lon="5.25954">
        <ele>79.18</ele>
        <time>2019-02-03T07:37:16Z</time>
      </trkpt>
      <trkpt lat="43.51474" lon="5.25959">
        <ele>80.19</ele>
        <time>2019-02-03T07:37:32Z</time>
      </trkpt>
      <trkpt lat="43.51447" lon="5.2596">
        <ele>80.99</ele>
        <time>2019-02-03T07:37:49Z</time>
      </trkpt>
      <trkpt lat="43.51418" lon="5.25966">
        <ele>79.94</ele>
        <time>2019-02-03T07:38:08Z</time>
      </trkpt>
      <trkpt lat="43.51399" lon="5.25969">
        <ele>79.31</ele>
        <time>2019-02-03T07:38:21Z</time>
      </trkpt>
      <trkpt lat="43.51378" lon="5.25969">
        <ele>79.59</ele>
        <time>2019-02-03T07:38:35Z</time>
      </trkpt>
      <trkpt lat="43.51354" lon="5.25969">
        <ele>78.76</ele>
        <time>2019-02-03T07:38:50Z</time>
      </trkpt>
      <trkpt lat="43.51326" lon="5.25971">
        <ele>80.01</ele>
        <time>2019-02-03T07:39:08Z</time>
      </trkpt>
      <trkpt lat="43.51301" lon="5.2597">
        <ele>80.22</ele>
        <time>2019-02-03T07:39:24Z</time>
      </trkpt>
      <trkpt lat="43.51274" lon="5.25967">
        <ele>80.4</ele>
        <time>2019-02-03T07:39:41Z</time>
      </trkpt>
      <trkpt lat="43.51246" lon="5.25968">
        <ele>80.61</ele>
        <time>2019-02-03T07:39:59Z</time>
      </trkpt>
      <trkpt lat="43.51223" lon="5.25968">
        <ele>80.79</ele>
        <time>2019-02-03T07:40:14Z</time>
      </trkpt>
      <trkpt lat="43.51194" lon="5.25965">
        <ele>80.92</ele>
        <time>2019-02-03T07:40:32Z</time>
      </trkpt>
      <trkpt lat="43.51169" lon="5.25965">
        <ele>83.92</ele>
        <time>2019-02-03T07:40:48Z</time>
      </trkpt>
      <trkpt lat="43.51148" lon="5.25962">
        <ele>85.68</ele>
        <time>2019-02-03T07:41:02Z</time>
      </trkpt>
      <trkpt lat="43.51123" lon="5.25968">
        <ele>84.15</ele>
        <time>2019-02-03T07:41:19Z</time>
      </trkpt>
      <trkpt lat="43.51097" lon="5.25976">
        <ele>84.18</ele>
        <time>2019-02-03T07:41:37Z</time>
      </trkpt>
      <trkpt lat="43.51075" lon="5.2598">
        <ele>86.32</ele>
        <time>2019-02-03T07:41:53Z</time>
      </trkpt>
      <trkpt lat="43.51047" lon="5.25973">
        <ele>87.18</ele>
        <time>2019-02-03T07:42:11Z</time>
      </trkpt>
      <trkpt lat="43.51025" lon="5.25969">
        <ele>86.43</ele>
        <time>2019-02-03T07:42:25Z</time>
      </trkpt>
      <trkpt lat="43.51005" lon="5.25966">
        <ele>83.4</ele>
        <time>2019-02-03T07:42:38Z</time>
      </trkpt>
      <trkpt lat="43.50983" lon="5.25962">
        <ele>82.39</ele>
        <time>2019-02-03T07:42:53Z</time>
      </trkpt>
      <trkpt lat="43.50959" lon="5.25962">
        <ele>80.6</ele>
        <time>2019-02-03T07:43:09Z</time>
      </trkpt>
      <trkpt lat="43.50931" lon="5.2596">
        <ele>79.14</ele>
        <time>2019-02-03T07:43:28Z</time>
      </trkpt>
      <trkpt lat="43.50903" lon="5.25953">
        <ele>79.97</ele>
        <time>2019-02-03T07:43:46Z</time>
      </trkpt>
      <trkpt lat="43.50876" lon="5.25947">
        <ele>79.11</ele>
        <time>2019-02-03T07:44:03Z</time>
      </trkpt>
      <trkpt lat="43.50856" lon="5.25944">
        <ele>79.65</ele>
        <time>2019-02-03T07:44:16Z</time>
      </trkpt>
      <trkpt lat="43.50831" lon="5.2594">
        <ele>79.83</ele>
        <time>2019-02-03T07:44:33Z</time>
      </trkpt>
      <trkpt lat="43.50806" lon="5.25935">
        <ele>79.37</ele>
        <time>2019-02-03T07:44:50Z</time>
      </trkpt>
      <trkpt lat="43.50779" lon="5.25926">
        <ele>79.08</ele>
        <time>2019-02-03T07:45:07Z</time>
      </trkpt>
      <trkpt lat="43.50756" lon="5.2592">
        <ele>79.15</ele>
        <time>2019-02-03T07:45:22Z</time>
      </trkpt>
      <trkpt lat="43.50737" lon="5.25916">
        <ele>79.42</ele>
        <time>2019-02-03T07:45:36Z</time>
      </trkpt>
      <trkpt lat="43.50709" lon="5.25911">
        <ele>80.58</ele>
        <time>2019-02-03T07:45:55Z</time>
      </trkpt>
      <trkpt lat="43.50687" lon="5.2591">
        <ele>81.75</ele>
        <time>2019-02-03T07:46:10Z</time>
      </trkpt>
      <trkpt lat="43.5066" lon="5.25909">
        <ele>81.12</ele>
        <time>2019-02-03T07:46:29Z</time>
      </trkpt>
      <trkpt lat="43.50632" lon="5.25911">
        <ele>81.25</ele>
        <time>2019-02-03T07:46:49Z</time>
      </trkpt>
      <trkpt lat="43.50627" lon="5.25912">
        <ele>81.43</ele>
        <time>2019-02-03T07:46:54Z</time>
      </trkpt>
      <trkpt lat="43.5061" lon="5.25925">
        <ele>81.94</ele>
        <time>2019-02-03T07:47:08Z</time>
      </trkpt>
      <trkpt lat="43.50594" lon="5.25933">
        <ele>82.03</ele>
        <time>2019-02-03T07:47:22Z</time>
      </trkpt>
      <trkpt lat="43.50567" lon="5.25933">
        <ele>82.29</ele>
        <time>2019-02-03T07:47:42Z</time>
      </trkpt>
      <trkpt lat="43.50557" lon="5.25929">
        <ele>83.62</ele>
        <time>2019-02-03T07:47:50Z</time>
      </trkpt>
      <trkpt lat="43.5055" lon="5.25925">
        <ele>83.35</ele>
        <time>2019-02-03T07:47:55Z</time>
      </trkpt>
      <trkpt lat="43.50547" lon="5.25924">
        <ele>83.36</ele>
        <time>2019-02-03T07:47:57Z</time>
      </trkpt>
      <trkpt lat="43.50533" lon="5.25913">
        <ele>84.22</ele>
        <time>2019-02-03T07:48:10Z</time>
      </trkpt>
      <trkpt lat="43.5053" lon="5.2591">
        <ele>84.55</ele>
        <time>2019-02-03T07:48:13Z</time>
      </trkpt>
      <trkpt lat="43.50513" lon="5.25888">
        <ele>87.13</ele>
        <time>2019-02-03T07:48:28Z</time>
      </trkpt>
      <trkpt lat="43.505" lon="5.25869">
        <ele>88.45</ele>
        <time>2019-02-03T07:48:42Z</time>
      </trkpt>
      <trkpt lat="43.50492" lon="5.25858">
        <ele>90.03</ele>
        <time>2019-02-03T07:48:55Z</time>
      </trkpt>
      <trkpt lat="43.50477" lon="5.25847">
        <ele>91.03</ele>
        <time>2019-02-03T07:49:06Z</time>
      </trkpt>
      <trkpt lat="43.50462" lon="5.25829">
        <ele>92.48</ele>
        <time>2019-02-03T07:49:19Z</time>
      </trkpt>
      <trkpt lat="43.50444" lon="5.25821">
        <ele>92.04</ele>
        <time>2019-02-03T07:49:32Z</time>
      </trkpt>
      <trkpt lat="43.50434" lon="5.2582">
        <ele>91.84</ele>
        <time>2019-02-03T07:49:48Z</time>
      </trkpt>
      <trkpt lat="43.50426" lon="5.25826">
        <ele>91.5</ele>
        <time>2019-02-03T07:50:07Z</time>
      </trkpt>
      <trkpt lat="43.50416" lon="5.25827">
        <ele>89.26</ele>
        <time>2019-02-03T07:50:16Z</time>
      </trkpt>
      <trkpt lat="43.50411" lon="5.25823">
        <ele>89.2</ele>
        <time>2019-02-03T07:50:21Z</time>
      </trkpt>
      <trkpt lat="43.50399" lon="5.25817">
        <ele>89.78</ele>
        <time>2019-02-03T07:50:29Z</time>
      </trkpt>
      <trkpt lat="43.50374" lon="5.25808">
        <ele>89.08</ele>
        <time>2019-02-03T07:50:45Z</time>
      </trkpt>
      <trkpt lat="43.50356" lon="5.25799">
        <ele>89.54</ele>
        <time>2019-02-03T07:51:00Z</time>
      </trkpt>
      <trkpt lat="43.50342" lon="5.25791">
        <ele>89.62</ele>
        <time>2019-02-03T07:51:13Z</time>
      </trkpt>
      <trkpt lat="43.50336" lon="5.25788">
        <ele>89.87</ele>
        <time>2019-02-03T07:51:17Z</time>
      </trkpt>
      <trkpt lat="43.50323" lon="5.25763">
        <ele>91.91</ele>
        <time>2019-02-03T07:51:33Z</time>
      </trkpt>
      <trkpt lat="43.50326" lon="5.25752">
        <ele>92.76</ele>
        <time>2019-02-03T07:51:41Z</time>
      </trkpt>
      <trkpt lat="43.50326" lon="5.2572">
        <ele>94.85</ele>
        <time>2019-02-03T07:52:02Z</time>
      </trkpt>
      <trkpt lat="43.50325" lon="5.25717">
        <ele>95.27</ele>
        <time>2019-02-03T07:52:05Z</time>
      </trkpt>
      <trkpt lat="43.50312" lon="5.25706">
        <ele>98.53</ele>
        <time>2019-02-03T07:52:20Z</time>
      </trkpt>
      <trkpt lat="43.50315" lon="5.25705">
        <ele>99.1</ele>
        <time>2019-02-03T07:52:34Z</time>
      </trkpt>
      <trkpt lat="43.50318" lon="5.2571">
        <ele>99.22</ele>
        <time>2019-02-03T07:52:39Z</time>
      </trkpt>
      <trkpt lat="43.5033" lon="5.25711">
        <ele>97.02</ele>
        <time>2019-02-03T07:52:56Z</time>
      </trkpt>
      <trkpt lat="43.50338" lon="5.25699">
        <ele>98.99</ele>
        <time>2019-02-03T07:53:14Z</time>
      </trkpt>
      <trkpt lat="43.50339" lon="5.25694">
        <ele>102.22</ele>
        <time>2019-02-03T07:53:24Z</time>
      </trkpt>
      <trkpt lat="43.50341" lon="5.25684">
        <ele>103.7</ele>
        <time>2019-02-03T07:53:33Z</time>
      </trkpt>
      <trkpt lat="43.50346" lon="5.25678">
        <ele>105.39</ele>
        <time>2019-02-03T07:53:53Z</time>
      </trkpt>
      <trkpt lat="43.50363" lon="5.25677">
        <ele>106.13</ele>
        <time>2019-02-03T07:54:11Z</time>
      </trkpt>
      <trkpt lat="43.50368" lon="5.25675">
        <ele>109.63</ele>
        <time>2019-02-03T07:54:17Z</time>
      </trkpt>
      <trkpt lat="43.50371" lon="5.25673">
        <ele>110.49</ele>
        <time>2019-02-03T07:54:19Z</time>
      </trkpt>
      <trkpt lat="43.50378" lon="5.25669">
        <ele>110.53</ele>
        <time>2019-02-03T07:54:26Z</time>
      </trkpt>
      <trkpt lat="43.50382" lon="5.25667">
        <ele>110.76</ele>
        <time>2019-02-03T07:54:29Z</time>
      </trkpt>
      <trkpt lat="43.50394" lon="5.25656">
        <ele>111.93</ele>
        <time>2019-02-03T07:54:41Z</time>
      </trkpt>
      <trkpt lat="43.50403" lon="5.25641">
        <ele>111.73</ele>
        <time>2019-02-03T07:54:52Z</time>
      </trkpt>
      <trkpt lat="43.50408" lon="5.2564">
        <ele>113.44</ele>
        <time>2019-02-03T07:55:13Z</time>
      </trkpt>
      <trkpt lat="43.50409" lon="5.25632">
        <ele>112.22</ele>
        <time>2019-02-03T07:55:53Z</time>
      </trkpt>
      <trkpt lat="43.50411" lon="5.25626">
        <ele>112.73</ele>
        <time>2019-02-03T07:55:57Z</time>
      </trkpt>
      <trkpt lat="43.50416" lon="5.256">
        <ele>113.18</ele>
        <time>2019-02-03T07:56:13Z</time>
      </trkpt>
      <trkpt lat="43.50422" lon="5.25577">
        <ele>113.05</ele>
        <time>2019-02-03T07:56:29Z</time>
      </trkpt>
      <trkpt lat="43.50427" lon="5.25567">
        <ele>113.27</ele>
        <time>2019-02-03T07:56:36Z</time>
      </trkpt>
      <trkpt lat="43.50434" lon="5.25543">
        <ele>115.15</ele>
        <time>2019-02-03T07:56:50Z</time>
      </trkpt>
      <trkpt lat="43.50435" lon="5.25538">
        <ele>115.09</ele>
        <time>2019-02-03T07:56:53Z</time>
      </trkpt>
      <trkpt lat="43.50437" lon="5.25513">
        <ele>115.6</ele>
        <time>2019-02-03T07:57:10Z</time>
      </trkpt>
      <trkpt lat="43.50439" lon="5.25494">
        <ele>117.38</ele>
        <time>2019-02-03T07:57:22Z</time>
      </trkpt>
      <trkpt lat="43.50433" lon="5.25477">
        <ele>118.89</ele>
        <time>2019-02-03T07:57:39Z</time>
      </trkpt>
      <trkpt lat="43.50433" lon="5.2546">
        <ele>120.88</ele>
        <time>2019-02-03T07:57:52Z</time>
      </trkpt>
      <trkpt lat="43.50435" lon="5.25456">
        <ele>121.14</ele>
        <time>2019-02-03T07:57:56Z</time>
      </trkpt>
      <trkpt lat="43.50445" lon="5.25437">
        <ele>123.9</ele>
        <time>2019-02-03T07:58:11Z</time>
      </trkpt>
      <trkpt lat="43.50452" lon="5.25413">
        <ele>125.88</ele>
        <time>2019-02-03T07:58:30Z</time>
      </trkpt>
      <trkpt lat="43.50458" lon="5.25392">
        <ele>126.81</ele>
        <time>2019-02-03T07:58:47Z</time>
      </trkpt>
      <trkpt lat="43.50463" lon="5.25367">
        <ele>127.91</ele>
        <time>2019-02-03T07:59:05Z</time>
      </trkpt>
      <trkpt lat="43.50465" lon="5.25347">
        <ele>130.95</ele>
        <time>2019-02-03T07:59:18Z</time>
      </trkpt>
      <trkpt lat="43.50466" lon="5.25321">
        <ele>132.14</ele>
        <time>2019-02-03T07:59:37Z</time>
      </trkpt>
      <trkpt lat="43.50461" lon="5.25297">
        <ele>133.53</ele>
        <time>2019-02-03T07:59:55Z</time>
      </trkpt>
      <trkpt lat="43.50459" lon="5.25274">
        <ele>135.78</ele>
        <time>2019-02-03T08:00:15Z</time>
      </trkpt>
      <trkpt lat="43.50453" lon="5.2525">
        <ele>135.88</ele>
        <time>2019-02-03T08:00:35Z</time>
      </trkpt>
      <trkpt lat="43.50447" lon="5.25224">
        <ele>138.7</ele>
        <time>2019-02-03T08:00:55Z</time>
      </trkpt>
      <trkpt lat="43.50441" lon="5.25199">
        <ele>140.37</ele>
        <time>2019-02-03T08:01:14Z</time>
      </trkpt>
      <trkpt lat="43.50441" lon="5.25191">
        <ele>141.01</ele>
        <time>2019-02-03T08:01:19Z</time>
      </trkpt>
      <trkpt lat="43.5044" lon="5.25167">
        <ele>143.69</ele>
        <time>2019-02-03T08:01:36Z</time>
      </trkpt>
      <trkpt lat="43.50437" lon="5.25148">
        <ele>144.05</ele>
        <time>2019-02-03T08:01:50Z</time>
      </trkpt>
      <trkpt lat="43.50432" lon="5.25133">
        <ele>147.28</ele>
        <time>2019-02-03T08:02:05Z</time>
      </trkpt>
      <trkpt lat="43.50434" lon="5.25127">
        <ele>149.35</ele>
        <time>2019-02-03T08:02:13Z</time>
      </trkpt>
      <trkpt lat="43.50438" lon="5.25122">
        <ele>149.29</ele>
        <time>2019-02-03T08:02:17Z</time>
      </trkpt>
      <trkpt lat="43.5045" lon="5.25099">
        <ele>151.09</ele>
        <time>2019-02-03T08:02:35Z</time>
      </trkpt>
      <trkpt lat="43.50465" lon="5.2508">
        <ele>152.03</ele>
        <time>2019-02-03T08:02:51Z</time>
      </trkpt>
      <trkpt lat="43.50473" lon="5.25065">
        <ele>155.19</ele>
        <time>2019-02-03T08:03:01Z</time>
      </trkpt>
      <trkpt lat="43.5048" lon="5.25039">
        <ele>157.42</ele>
        <time>2019-02-03T08:03:21Z</time>
      </trkpt>
      <trkpt lat="43.50483" lon="5.25019">
        <ele>160.43</ele>
        <time>2019-02-03T08:03:36Z</time>
      </trkpt>
      <trkpt lat="43.50486" lon="5.2501">
        <ele>163.76</ele>
        <time>2019-02-03T08:03:45Z</time>
      </trkpt>
      <trkpt lat="43.50495" lon="5.25003">
        <ele>166.05</ele>
        <time>2019-02-03T08:04:00Z</time>
      </trkpt>
      <trkpt lat="43.50507" lon="5.24992">
        <ele>166.17</ele>
        <time>2019-02-03T08:04:16Z</time>
      </trkpt>
      <trkpt lat="43.50508" lon="5.24989">
        <ele>166.31</ele>
        <time>2019-02-03T08:04:18Z</time>
      </trkpt>
      <trkpt lat="43.50522" lon="5.24978">
        <ele>166.4</ele>
        <time>2019-02-03T08:04:35Z</time>
      </trkpt>
      <trkpt lat="43.50532" lon="5.24974">
        <ele>169.51</ele>
        <time>2019-02-03T08:04:45Z</time>
      </trkpt>
      <trkpt lat="43.50547" lon="5.24969">
        <ele>171.43</ele>
        <time>2019-02-03T08:05:00Z</time>
      </trkpt>
      <trkpt lat="43.50562" lon="5.24955">
        <ele>170.77</ele>
        <time>2019-02-03T08:05:16Z</time>
      </trkpt>
      <trkpt lat="43.50575" lon="5.24944">
        <ele>171.58</ele>
        <time>2019-02-03T08:05:30Z</time>
      </trkpt>
      <trkpt lat="43.50574" lon="5.24942">
        <ele>172.06</ele>
        <time>2019-02-03T08:05:32Z</time>
      </trkpt>
      <trkpt lat="43.50569" lon="5.24939">
        <ele>176.89</ele>
        <time>2019-02-03T08:05:40Z</time>
      </trkpt>
      <trkpt lat="43.50559" lon="5.24932">
        <ele>177.46</ele>
        <time>2019-02-03T08:06:01Z</time>
      </trkpt>
      <trkpt lat="43.50544" lon="5.24916">
        <ele>179</ele>
        <time>2019-02-03T08:06:18Z</time>
      </trkpt>
      <trkpt lat="43.50518" lon="5.249">
        <ele>177.11</ele>
        <time>2019-02-03T08:06:37Z</time>
      </trkpt>
      <trkpt lat="43.50487" lon="5.24885">
        <ele>175.34</ele>
        <time>2019-02-03T08:06:58Z</time>
      </trkpt>
      <trkpt lat="43.5046" lon="5.2487">
        <ele>176.22</ele>
        <time>2019-02-03T08:07:17Z</time>
      </trkpt>
      <trkpt lat="43.50431" lon="5.24854">
        <ele>177.35</ele>
        <time>2019-02-03T08:07:38Z</time>
      </trkpt>
      <trkpt lat="43.50411" lon="5.24845">
        <ele>178.63</ele>
        <time>2019-02-03T08:07:53Z</time>
      </trkpt>
      <trkpt lat="43.50391" lon="5.24844">
        <ele>180.97</ele>
        <time>2019-02-03T08:08:08Z</time>
      </trkpt>
      <trkpt lat="43.50369" lon="5.24842">
        <ele>179.8</ele>
        <time>2019-02-03T08:08:24Z</time>
      </trkpt>
      <trkpt lat="43.50342" lon="5.24835">
        <ele>178.19</ele>
        <time>2019-02-03T08:08:42Z</time>
      </trkpt>
      <trkpt lat="43.50319" lon="5.24833">
        <ele>177.88</ele>
        <time>2019-02-03T08:08:57Z</time>
      </trkpt>
      <trkpt lat="43.50292" lon="5.24839">
        <ele>176.73</ele>
        <time>2019-02-03T08:09:16Z</time>
      </trkpt>
      <trkpt lat="43.50262" lon="5.24831">
        <ele>176.22</ele>
        <time>2019-02-03T08:09:36Z</time>
      </trkpt>
      <trkpt lat="43.50237" lon="5.24842">
        <ele>174.06</ele>
        <time>2019-02-03T08:09:53Z</time>
      </trkpt>
      <trkpt lat="43.50213" lon="5.2485">
        <ele>173.85</ele>
        <time>2019-02-03T08:10:08Z</time>
      </trkpt>
      <trkpt lat="43.50192" lon="5.2486">
        <ele>175</ele>
        <time>2019-02-03T08:10:22Z</time>
      </trkpt>
      <trkpt lat="43.50168" lon="5.24864">
        <ele>174.4</ele>
        <time>2019-02-03T08:10:37Z</time>
      </trkpt>
      <trkpt lat="43.50133" lon="5.24878">
        <ele>174.92</ele>
        <time>2019-02-03T08:11:00Z</time>
      </trkpt>
      <trkpt lat="43.50105" lon="5.24901">
        <ele>172.05</ele>
        <time>2019-02-03T08:11:21Z</time>
      </trkpt>
      <trkpt lat="43.5008" lon="5.24907">
        <ele>171.96</ele>
        <time>2019-02-03T08:11:37Z</time>
      </trkpt>
      <trkpt lat="43.50054" lon="5.24906">
        <ele>171.75</ele>
        <time>2019-02-03T08:11:53Z</time>
      </trkpt>
      <trkpt lat="43.50032" lon="5.24909">
        <ele>173.49</ele>
        <time>2019-02-03T08:12:08Z</time>
      </trkpt>
      <trkpt lat="43.50007" lon="5.24912">
        <ele>173.4</ele>
        <time>2019-02-03T08:12:25Z</time>
      </trkpt>
      <trkpt lat="43.49982" lon="5.24923">
        <ele>171.66</ele>
        <time>2019-02-03T08:12:43Z</time>
      </trkpt>
      <trkpt lat="43.49955" lon="5.24935">
        <ele>171.79</ele>
        <time>2019-02-03T08:13:01Z</time>
      </trkpt>
      <trkpt lat="43.49925" lon="5.24941">
        <ele>169.91</ele>
        <time>2019-02-03T08:13:19Z</time>
      </trkpt>
      <trkpt lat="43.49899" lon="5.24937">
        <ele>168.9</ele>
        <time>2019-02-03T08:13:36Z</time>
      </trkpt>
      <trkpt lat="43.49876" lon="5.24928">
        <ele>169.16</ele>
        <time>2019-02-03T08:13:51Z</time>
      </trkpt>
      <trkpt lat="43.49849" lon="5.2492">
        <ele>168.71</ele>
        <time>2019-02-03T08:14:08Z</time>
      </trkpt>
      <trkpt lat="43.49826" lon="5.24917">
        <ele>171.11</ele>
        <time>2019-02-03T08:14:22Z</time>
      </trkpt>
      <trkpt lat="43.49811" lon="5.24905">
        <ele>174.13</ele>
        <time>2019-02-03T08:14:34Z</time>
      </trkpt>
      <trkpt lat="43.49798" lon="5.2489">
        <ele>177.37</ele>
        <time>2019-02-03T08:14:46Z</time>
      </trkpt>
      <trkpt lat="43.49776" lon="5.24874">
        <ele>180.03</ele>
        <time>2019-02-03T08:15:05Z</time>
      </trkpt>
      <trkpt lat="43.49763" lon="5.24864">
        <ele>183.2</ele>
        <time>2019-02-03T08:15:17Z</time>
      </trkpt>
      <trkpt lat="43.49743" lon="5.24845">
        <ele>183.96</ele>
        <time>2019-02-03T08:15:33Z</time>
      </trkpt>
      <trkpt lat="43.49722" lon="5.24834">
        <ele>183.55</ele>
        <time>2019-02-03T08:15:48Z</time>
      </trkpt>
      <trkpt lat="43.49698" lon="5.24818">
        <ele>182.09</ele>
        <time>2019-02-03T08:16:07Z</time>
      </trkpt>
      <trkpt lat="43.49689" lon="5.24811">
        <ele>183.25</ele>
        <time>2019-02-03T08:16:14Z</time>
      </trkpt>
      <trkpt lat="43.49685" lon="5.24805">
        <ele>183.81</ele>
        <time>2019-02-03T08:16:18Z</time>
      </trkpt>
      <trkpt lat="43.4967" lon="5.24782">
        <ele>182.98</ele>
        <time>2019-02-03T08:16:33Z</time>
      </trkpt>
      <trkpt lat="43.49658" lon="5.24761">
        <ele>179.82</ele>
        <time>2019-02-03T08:16:46Z</time>
      </trkpt>
      <trkpt lat="43.49639" lon="5.24739">
        <ele>180.32</ele>
        <time>2019-02-03T08:17:03Z</time>
      </trkpt>
      <trkpt lat="43.49623" lon="5.24723">
        <ele>182.29</ele>
        <time>2019-02-03T08:17:19Z</time>
      </trkpt>
      <trkpt lat="43.49613" lon="5.24703">
        <ele>181.76</ele>
        <time>2019-02-03T08:17:30Z</time>
      </trkpt>
      <trkpt lat="43.49613" lon="5.24694">
        <ele>184.86</ele>
        <time>2019-02-03T08:17:35Z</time>
      </trkpt>
      <trkpt lat="43.49611" lon="5.24686">
        <ele>186.96</ele>
        <time>2019-02-03T08:17:40Z</time>
      </trkpt>
      <trkpt lat="43.49609" lon="5.2468">
        <ele>187.78</ele>
        <time>2019-02-03T08:17:45Z</time>
      </trkpt>
      <trkpt lat="43.49595" lon="5.24658">
        <ele>187.75</ele>
        <time>2019-02-03T08:18:00Z</time>
      </trkpt>
      <trkpt lat="43.49587" lon="5.24647">
        <ele>185.96</ele>
        <time>2019-02-03T08:18:11Z</time>
      </trkpt>
      <trkpt lat="43.49575" lon="5.2464">
        <ele>188.06</ele>
        <time>2019-02-03T08:18:20Z</time>
      </trkpt>
      <trkpt lat="43.49554" lon="5.24627">
        <ele>186.04</ele>
        <time>2019-02-03T08:18:36Z</time>
      </trkpt>
      <trkpt lat="43.49542" lon="5.2462">
        <ele>189.57</ele>
        <time>2019-02-03T08:18:46Z</time>
      </trkpt>
      <trkpt lat="43.49537" lon="5.24615">
        <ele>192.9</ele>
        <time>2019-02-03T08:18:51Z</time>
      </trkpt>
      <trkpt lat="43.4953" lon="5.2461">
        <ele>196.21</ele>
        <time>2019-02-03T08:18:56Z</time>
      </trkpt>
      <trkpt lat="43.49516" lon="5.24604">
        <ele>193.2</ele>
        <time>2019-02-03T08:19:05Z</time>
      </trkpt>
      <trkpt lat="43.49505" lon="5.24604">
        <ele>190.07</ele>
        <time>2019-02-03T08:19:13Z</time>
      </trkpt>
      <trkpt lat="43.49491" lon="5.24609">
        <ele>186.74</ele>
        <time>2019-02-03T08:19:23Z</time>
      </trkpt>
      <trkpt lat="43.49478" lon="5.24615">
        <ele>183.62</ele>
        <time>2019-02-03T08:19:33Z</time>
      </trkpt>
      <trkpt lat="43.4947" lon="5.2462">
        <ele>180.4</ele>
        <time>2019-02-03T08:19:39Z</time>
      </trkpt>
      <trkpt lat="43.49449" lon="5.24626">
        <ele>177.3</ele>
        <time>2019-02-03T08:19:53Z</time>
      </trkpt>
      <trkpt lat="43.49432" lon="5.24625">
        <ele>180.59</ele>
        <time>2019-02-03T08:20:04Z</time>
      </trkpt>
      <trkpt lat="43.49401" lon="5.24628">
        <ele>179.56</ele>
        <time>2019-02-03T08:20:24Z</time>
      </trkpt>
      <trkpt lat="43.49377" lon="5.24623">
        <ele>178.54</ele>
        <time>2019-02-03T08:20:40Z</time>
      </trkpt>
      <trkpt lat="43.49371" lon="5.24619">
        <ele>182.13</ele>
        <time>2019-02-03T08:20:44Z</time>
      </trkpt>
      <trkpt lat="43.49367" lon="5.24615">
        <ele>185.36</ele>
        <time>2019-02-03T08:20:48Z</time>
      </trkpt>
      <trkpt lat="43.49365" lon="5.24615">
        <ele>185.55</ele>
        <time>2019-02-03T08:20:49Z</time>
      </trkpt>
      <trkpt lat="43.4935" lon="5.24601">
        <ele>185.38</ele>
        <time>2019-02-03T08:21:03Z</time>
      </trkpt>
      <trkpt lat="43.4933" lon="5.24591">
        <ele>184.2</ele>
        <time>2019-02-03T08:21:19Z</time>
      </trkpt>
      <trkpt lat="43.49314" lon="5.24574">
        <ele>184.15</ele>
        <time>2019-02-03T08:21:33Z</time>
      </trkpt>
      <trkpt lat="43.493" lon="5.24548">
        <ele>184.57</ele>
        <time>2019-02-03T08:21:49Z</time>
      </trkpt>
      <trkpt lat="43.49295" lon="5.24537">
        <ele>188.05</ele>
        <time>2019-02-03T08:21:55Z</time>
      </trkpt>
      <trkpt lat="43.49289" lon="5.24527">
        <ele>184.93</ele>
        <time>2019-02-03T08:22:08Z</time>
      </trkpt>
      <trkpt lat="43.49288" lon="5.24526">
        <ele>186.95</ele>
        <time>2019-02-03T08:22:15Z</time>
      </trkpt>
      <trkpt lat="43.49287" lon="5.24526">
        <ele>183.91</ele>
        <time>2019-02-03T08:22:27Z</time>
      </trkpt>
      <trkpt lat="43.49287" lon="5.24526">
        <ele>186.54</ele>
        <time>2019-02-03T08:22:42Z</time>
      </trkpt>
      <trkpt lat="43.49287" lon="5.24526">
        <ele>183.4</ele>
        <time>2019-02-03T08:23:07Z</time>
      </trkpt>
      <trkpt lat="43.49287" lon="5.24526">
        <ele>183.67</ele>
        <time>2019-02-03T08:23:38Z</time>
      </trkpt>
      <trkpt lat="43.49287" lon="5.24526">
        <ele>186.8</ele>
        <time>2019-02-03T08:23:47Z</time>
      </trkpt>
      <trkpt lat="43.49289" lon="5.24527">
        <ele>187.92</ele>
        <time>2019-02-03T08:24:09Z</time>
      </trkpt>
      <trkpt lat="43.49288" lon="5.24526">
        <ele>184.53</ele>
        <time>2019-02-03T08:24:31Z</time>
      </trkpt>
      <trkpt lat="43.49288" lon="5.24525">
        <ele>184.47</ele>
        <time>2019-02-03T08:24:36Z</time>
      </trkpt>
      <trkpt lat="43.49287" lon="5.24516">
        <ele>187.96</ele>
        <time>2019-02-03T08:24:41Z</time>
      </trkpt>
      <trkpt lat="43.49287" lon="5.24514">
        <ele>188.01</ele>
        <time>2019-02-03T08:24:42Z</time>
      </trkpt>
      <trkpt lat="43.4928" lon="5.24483">
        <ele>185.6</ele>
        <time>2019-02-03T08:24:58Z</time>
      </trkpt>
      <trkpt lat="43.49279" lon="5.24476">
        <ele>189.27</ele>
        <time>2019-02-03T08:25:02Z</time>
      </trkpt>
      <trkpt lat="43.49279" lon="5.24468">
        <ele>192.15</ele>
        <time>2019-02-03T08:25:06Z</time>
      </trkpt>
      <trkpt lat="43.49279" lon="5.24466">
        <ele>192.12</ele>
        <time>2019-02-03T08:25:07Z</time>
      </trkpt>
      <trkpt lat="43.49279" lon="5.24451">
        <ele>195.29</ele>
        <time>2019-02-03T08:25:16Z</time>
      </trkpt>
      <trkpt lat="43.49276" lon="5.24426">
        <ele>194.34</ele>
        <time>2019-02-03T08:25:30Z</time>
      </trkpt>
      <trkpt lat="43.49264" lon="5.24415">
        <ele>191.61</ele>
        <time>2019-02-03T08:25:42Z</time>
      </trkpt>
      <trkpt lat="43.49262" lon="5.24414">
        <ele>191.61</ele>
        <time>2019-02-03T08:25:43Z</time>
      </trkpt>
      <trkpt lat="43.4924" lon="5.24415">
        <ele>188.14</ele>
        <time>2019-02-03T08:25:57Z</time>
      </trkpt>
      <trkpt lat="43.49234" lon="5.24415">
        <ele>185.97</ele>
        <time>2019-02-03T08:26:01Z</time>
      </trkpt>
      <trkpt lat="43.49227" lon="5.24417">
        <ele>184.13</ele>
        <time>2019-02-03T08:26:15Z</time>
      </trkpt>
      <trkpt lat="43.49227" lon="5.24417">
        <ele>187.26</ele>
        <time>2019-02-03T08:26:22Z</time>
      </trkpt>
      <trkpt lat="43.49228" lon="5.24417">
        <ele>184.2</ele>
        <time>2019-02-03T08:26:31Z</time>
      </trkpt>
      <trkpt lat="43.49228" lon="5.24417">
        <ele>187.39</ele>
        <time>2019-02-03T08:26:45Z</time>
      </trkpt>
      <trkpt lat="43.49222" lon="5.24418">
        <ele>187.77</ele>
        <time>2019-02-03T08:27:00Z</time>
      </trkpt>
      <trkpt lat="43.4922" lon="5.24418">
        <ele>187.51</ele>
        <time>2019-02-03T08:27:01Z</time>
      </trkpt>
      <trkpt lat="43.49212" lon="5.24417">
        <ele>186.22</ele>
        <time>2019-02-03T08:27:07Z</time>
      </trkpt>
      <trkpt lat="43.49185" lon="5.24421">
        <ele>182.83</ele>
        <time>2019-02-03T08:27:24Z</time>
      </trkpt>
      <trkpt lat="43.49162" lon="5.24424">
        <ele>180.94</ele>
        <time>2019-02-03T08:27:40Z</time>
      </trkpt>
      <trkpt lat="43.49146" lon="5.24425">
        <ele>177.88</ele>
        <time>2019-02-03T08:27:50Z</time>
      </trkpt>
      <trkpt lat="43.49123" lon="5.24428">
        <ele>174.86</ele>
        <time>2019-02-03T08:28:05Z</time>
      </trkpt>
      <trkpt lat="43.49087" lon="5.2444">
        <ele>175.84</ele>
        <time>2019-02-03T08:28:27Z</time>
      </trkpt>
      <trkpt lat="43.4907" lon="5.24446">
        <ele>175.45</ele>
        <time>2019-02-03T08:28:40Z</time>
      </trkpt>
      <trkpt lat="43.49064" lon="5.24448">
        <ele>178.77</ele>
        <time>2019-02-03T08:28:52Z</time>
      </trkpt>
      <trkpt lat="43.49062" lon="5.24447">
        <ele>180.01</ele>
        <time>2019-02-03T08:29:05Z</time>
      </trkpt>
      <trkpt lat="43.49058" lon="5.24456">
        <ele>177.63</ele>
        <time>2019-02-03T08:29:17Z</time>
      </trkpt>
      <trkpt lat="43.49054" lon="5.24453">
        <ele>176.86</ele>
        <time>2019-02-03T08:29:22Z</time>
      </trkpt>
      <trkpt lat="43.49032" lon="5.24471">
        <ele>175.57</ele>
        <time>2019-02-03T08:29:41Z</time>
      </trkpt>
      <trkpt lat="43.49009" lon="5.24488">
        <ele>173.12</ele>
        <time>2019-02-03T08:29:59Z</time>
      </trkpt>
      <trkpt lat="43.48994" lon="5.24504">
        <ele>171.9</ele>
        <time>2019-02-03T08:30:11Z</time>
      </trkpt>
      <trkpt lat="43.48974" lon="5.24525">
        <ele>172.98</ele>
        <time>2019-02-03T08:30:27Z</time>
      </trkpt>
      <trkpt lat="43.48959" lon="5.2454">
        <ele>176.16</ele>
        <time>2019-02-03T08:30:40Z</time>
      </trkpt>
      <trkpt lat="43.48938" lon="5.24557">
        <ele>177.77</ele>
        <time>2019-02-03T08:30:55Z</time>
      </trkpt>
      <trkpt lat="43.48923" lon="5.24575">
        <ele>175.82</ele>
        <time>2019-02-03T08:31:08Z</time>
      </trkpt>
      <trkpt lat="43.48919" lon="5.24579">
        <ele>175.64</ele>
        <time>2019-02-03T08:31:12Z</time>
      </trkpt>
      <trkpt lat="43.48901" lon="5.24609">
        <ele>172.76</ele>
        <time>2019-02-03T08:31:31Z</time>
      </trkpt>
      <trkpt lat="43.48887" lon="5.24631">
        <ele>169.96</ele>
        <time>2019-02-03T08:31:45Z</time>
      </trkpt>
      <trkpt lat="43.48883" lon="5.24662">
        <ele>168.17</ele>
        <time>2019-02-03T08:31:59Z</time>
      </trkpt>
      <trkpt lat="43.4888" lon="5.24698">
        <ele>167.92</ele>
        <time>2019-02-03T08:32:15Z</time>
      </trkpt>
      <trkpt lat="43.48868" lon="5.24728">
        <ele>166.77</ele>
        <time>2019-02-03T08:32:31Z</time>
      </trkpt>
      <trkpt lat="43.48854" lon="5.24759">
        <ele>164.39</ele>
        <time>2019-02-03T08:32:48Z</time>
      </trkpt>
      <trkpt lat="43.48836" lon="5.24783">
        <ele>163.95</ele>
        <time>2019-02-03T08:33:05Z</time>
      </trkpt>
      <trkpt lat="43.4882" lon="5.24803">
        <ele>164.73</ele>
        <time>2019-02-03T08:33:18Z</time>
      </trkpt>
      <trkpt lat="43.488" lon="5.24819">
        <ele>161.85</ele>
        <time>2019-02-03T08:33:33Z</time>
      </trkpt>
      <trkpt lat="43.48782" lon="5.24835">
        <ele>161.12</ele>
        <time>2019-02-03T08:33:47Z</time>
      </trkpt>
      <trkpt lat="43.4877" lon="5.24847">
        <ele>160.56</ele>
        <time>2019-02-03T08:33:57Z</time>
      </trkpt>
      <trkpt lat="43.48764" lon="5.24851">
        <ele>160.53</ele>
        <time>2019-02-03T08:34:01Z</time>
      </trkpt>
      <trkpt lat="43.4874" lon="5.24868">
        <ele>160.1</ele>
        <time>2019-02-03T08:34:17Z</time>
      </trkpt>
      <trkpt lat="43.48722" lon="5.24884">
        <ele>159.09</ele>
        <time>2019-02-03T08:34:32Z</time>
      </trkpt>
      <trkpt lat="43.4872" lon="5.24887">
        <ele>158.59</ele>
        <time>2019-02-03T08:34:38Z</time>
      </trkpt>
      <trkpt lat="43.48717" lon="5.24914">
        <ele>156.27</ele>
        <time>2019-02-03T08:34:52Z</time>
      </trkpt>
      <trkpt lat="43.48715" lon="5.24943">
        <ele>154.87</ele>
        <time>2019-02-03T08:35:07Z</time>
      </trkpt>
      <trkpt lat="43.48714" lon="5.24971">
        <ele>152.17</ele>
        <time>2019-02-03T08:35:19Z</time>
      </trkpt>
      <trkpt lat="43.48719" lon="5.24979">
        <ele>150.83</ele>
        <time>2019-02-03T08:35:25Z</time>
      </trkpt>
      <trkpt lat="43.48739" lon="5.25007">
        <ele>151.9</ele>
        <time>2019-02-03T08:35:45Z</time>
      </trkpt>
      <trkpt lat="43.48758" lon="5.25035">
        <ele>151.26</ele>
        <time>2019-02-03T08:36:03Z</time>
      </trkpt>
      <trkpt lat="43.48769" lon="5.25067">
        <ele>148.72</ele>
        <time>2019-02-03T08:36:20Z</time>
      </trkpt>
      <trkpt lat="43.48776" lon="5.2511">
        <ele>149.73</ele>
        <time>2019-02-03T08:36:40Z</time>
      </trkpt>
      <trkpt lat="43.48788" lon="5.25144">
        <ele>150.53</ele>
        <time>2019-02-03T08:36:57Z</time>
      </trkpt>
      <trkpt lat="43.488" lon="5.25177">
        <ele>150.44</ele>
        <time>2019-02-03T08:37:13Z</time>
      </trkpt>
      <trkpt lat="43.48808" lon="5.25204">
        <ele>148.18</ele>
        <time>2019-02-03T08:37:28Z</time>
      </trkpt>
      <trkpt lat="43.4881" lon="5.25212">
        <ele>147.88</ele>
        <time>2019-02-03T08:37:33Z</time>
      </trkpt>
      <trkpt lat="43.48816" lon="5.25227">
        <ele>148.43</ele>
        <time>2019-02-03T08:37:43Z</time>
      </trkpt>
      <trkpt lat="43.48819" lon="5.25233">
        <ele>149</ele>
        <time>2019-02-03T08:37:47Z</time>
      </trkpt>
      <trkpt lat="43.4882" lon="5.25236">
        <ele>149.48</ele>
        <time>2019-02-03T08:37:49Z</time>
      </trkpt>
      <trkpt lat="43.48821" lon="5.25239">
        <ele>150.77</ele>
        <time>2019-02-03T08:37:52Z</time>
      </trkpt>
      <trkpt lat="43.48822" lon="5.25242">
        <ele>151.25</ele>
        <time>2019-02-03T08:37:54Z</time>
      </trkpt>
      <trkpt lat="43.48818" lon="5.25272">
        <ele>153.72</ele>
        <time>2019-02-03T08:38:10Z</time>
      </trkpt>
      <trkpt lat="43.48827" lon="5.25295">
        <ele>153.06</ele>
        <time>2019-02-03T08:38:23Z</time>
      </trkpt>
      <trkpt lat="43.48835" lon="5.25308">
        <ele>152.59</ele>
        <time>2019-02-03T08:38:38Z</time>
      </trkpt>
      <trkpt lat="43.48844" lon="5.25327">
        <ele>152.68</ele>
        <time>2019-02-03T08:38:50Z</time>
      </trkpt>
      <trkpt lat="43.48853" lon="5.25361">
        <ele>152.04</ele>
        <time>2019-02-03T08:39:07Z</time>
      </trkpt>
      <trkpt lat="43.48865" lon="5.25392">
        <ele>152.49</ele>
        <time>2019-02-03T08:39:25Z</time>
      </trkpt>
      <trkpt lat="43.48877" lon="5.25424">
        <ele>153.28</ele>
        <time>2019-02-03T08:39:41Z</time>
      </trkpt>
      <trkpt lat="43.48869" lon="5.25444">
        <ele>154.56</ele>
        <time>2019-02-03T08:39:56Z</time>
      </trkpt>
      <trkpt lat="43.48861" lon="5.2545">
        <ele>153.98</ele>
        <time>2019-02-03T08:40:03Z</time>
      </trkpt>
      <trkpt lat="43.48849" lon="5.25457">
        <ele>150.46</ele>
        <time>2019-02-03T08:40:12Z</time>
      </trkpt>
      <trkpt lat="43.48825" lon="5.25453">
        <ele>150.38</ele>
        <time>2019-02-03T08:40:29Z</time>
      </trkpt>
      <trkpt lat="43.48798" lon="5.25448">
        <ele>149.66</ele>
        <time>2019-02-03T08:40:47Z</time>
      </trkpt>
      <trkpt lat="43.48778" lon="5.2544">
        <ele>148.86</ele>
        <time>2019-02-03T08:41:01Z</time>
      </trkpt>
      <trkpt lat="43.4877" lon="5.25439">
        <ele>147.89</ele>
        <time>2019-02-03T08:41:06Z</time>
      </trkpt>
      <trkpt lat="43.4874" lon="5.25444">
        <ele>146.39</ele>
        <time>2019-02-03T08:41:25Z</time>
      </trkpt>
      <trkpt lat="43.48717" lon="5.25449">
        <ele>146.18</ele>
        <time>2019-02-03T08:41:41Z</time>
      </trkpt>
      <trkpt lat="43.48691" lon="5.25455">
        <ele>145.38</ele>
        <time>2019-02-03T08:41:58Z</time>
      </trkpt>
      <trkpt lat="43.4866" lon="5.25457">
        <ele>145.02</ele>
        <time>2019-02-03T08:42:18Z</time>
      </trkpt>
      <trkpt lat="43.48639" lon="5.25468">
        <ele>144.95</ele>
        <time>2019-02-03T08:42:31Z</time>
      </trkpt>
      <trkpt lat="43.48614" lon="5.25482">
        <ele>143.6</ele>
        <time>2019-02-03T08:42:48Z</time>
      </trkpt>
      <trkpt lat="43.48594" lon="5.25483">
        <ele>140.62</ele>
        <time>2019-02-03T08:43:02Z</time>
      </trkpt>
      <trkpt lat="43.48566" lon="5.25485">
        <ele>139.24</ele>
        <time>2019-02-03T08:43:20Z</time>
      </trkpt>
      <trkpt lat="43.48546" lon="5.25502">
        <ele>138.08</ele>
        <time>2019-02-03T08:43:37Z</time>
      </trkpt>
      <trkpt lat="43.48524" lon="5.25514">
        <ele>138.57</ele>
        <time>2019-02-03T08:43:51Z</time>
      </trkpt>
      <trkpt lat="43.485" lon="5.25525">
        <ele>138.59</ele>
        <time>2019-02-03T08:44:07Z</time>
      </trkpt>
      <trkpt lat="43.48478" lon="5.25526">
        <ele>136.72</ele>
        <time>2019-02-03T08:44:23Z</time>
      </trkpt>
      <trkpt lat="43.48469" lon="5.25525">
        <ele>135.39</ele>
        <time>2019-02-03T08:44:30Z</time>
      </trkpt>
      <trkpt lat="43.48465" lon="5.25529">
        <ele>135.12</ele>
        <time>2019-02-03T08:44:35Z</time>
      </trkpt>
      <trkpt lat="43.48466" lon="5.2554">
        <ele>135.03</ele>
        <time>2019-02-03T08:44:42Z</time>
      </trkpt>
      <trkpt lat="43.48466" lon="5.25548">
        <ele>135.28</ele>
        <time>2019-02-03T08:44:47Z</time>
      </trkpt>
      <trkpt lat="43.48461" lon="5.25561">
        <ele>135.53</ele>
        <time>2019-02-03T08:44:53Z</time>
      </trkpt>
      <trkpt lat="43.48447" lon="5.25579">
        <ele>136.59</ele>
        <time>2019-02-03T08:45:08Z</time>
      </trkpt>
      <trkpt lat="43.48445" lon="5.25581">
        <ele>136.65</ele>
        <time>2019-02-03T08:45:10Z</time>
      </trkpt>
      <trkpt lat="43.48444" lon="5.25589">
        <ele>136.93</ele>
        <time>2019-02-03T08:45:15Z</time>
      </trkpt>
      <trkpt lat="43.48442" lon="5.25593">
        <ele>137.38</ele>
        <time>2019-02-03T08:45:18Z</time>
      </trkpt>
      <trkpt lat="43.48435" lon="5.25603">
        <ele>138.36</ele>
        <time>2019-02-03T08:45:25Z</time>
      </trkpt>
      <trkpt lat="43.48422" lon="5.25606">
        <ele>139.58</ele>
        <time>2019-02-03T08:45:40Z</time>
      </trkpt>
      <trkpt lat="43.48414" lon="5.25613">
        <ele>140.9</ele>
        <time>2019-02-03T08:45:57Z</time>
      </trkpt>
      <trkpt lat="43.48401" lon="5.25631">
        <ele>142.94</ele>
        <time>2019-02-03T08:46:17Z</time>
      </trkpt>
      <trkpt lat="43.48399" lon="5.25631">
        <ele>143.46</ele>
        <time>2019-02-03T08:46:21Z</time>
      </trkpt>
      <trkpt lat="43.4839" lon="5.25634">
        <ele>144.01</ele>
        <time>2019-02-03T08:46:28Z</time>
      </trkpt>
      <trkpt lat="43.48387" lon="5.25636">
        <ele>144.39</ele>
        <time>2019-02-03T08:46:31Z</time>
      </trkpt>
      <trkpt lat="43.48383" lon="5.25659">
        <ele>146.35</ele>
        <time>2019-02-03T08:46:46Z</time>
      </trkpt>
      <trkpt lat="43.4838" lon="5.2567">
        <ele>146.94</ele>
        <time>2019-02-03T08:46:53Z</time>
      </trkpt>
      <trkpt lat="43.48378" lon="5.2568">
        <ele>147.44</ele>
        <time>2019-02-03T08:46:59Z</time>
      </trkpt>
      <trkpt lat="43.48377" lon="5.25708">
        <ele>149.38</ele>
        <time>2019-02-03T08:47:17Z</time>
      </trkpt>
      <trkpt lat="43.48377" lon="5.25727">
        <ele>149.72</ele>
        <time>2019-02-03T08:47:29Z</time>
      </trkpt>
      <trkpt lat="43.48378" lon="5.25739">
        <ele>151.91</ele>
        <time>2019-02-03T08:47:40Z</time>
      </trkpt>
      <trkpt lat="43.48381" lon="5.25758">
        <ele>154.09</ele>
        <time>2019-02-03T08:47:56Z</time>
      </trkpt>
      <trkpt lat="43.48386" lon="5.25782">
        <ele>156.19</ele>
        <time>2019-02-03T08:48:13Z</time>
      </trkpt>
      <trkpt lat="43.48386" lon="5.25786">
        <ele>156.78</ele>
        <time>2019-02-03T08:48:16Z</time>
      </trkpt>
      <trkpt lat="43.48388" lon="5.25804">
        <ele>158.36</ele>
        <time>2019-02-03T08:48:33Z</time>
      </trkpt>
      <trkpt lat="43.48387" lon="5.25824">
        <ele>160.04</ele>
        <time>2019-02-03T08:48:48Z</time>
      </trkpt>
      <trkpt lat="43.48389" lon="5.25844">
        <ele>162.91</ele>
        <time>2019-02-03T08:49:06Z</time>
      </trkpt>
      <trkpt lat="43.4839" lon="5.25854">
        <ele>165.96</ele>
        <time>2019-02-03T08:49:18Z</time>
      </trkpt>
      <trkpt lat="43.4839" lon="5.25864">
        <ele>169.2</ele>
        <time>2019-02-03T08:49:31Z</time>
      </trkpt>
      <trkpt lat="43.4839" lon="5.25872">
        <ele>172.3</ele>
        <time>2019-02-03T08:49:41Z</time>
      </trkpt>
      <trkpt lat="43.48391" lon="5.25879">
        <ele>175.71</ele>
        <time>2019-02-03T08:49:55Z</time>
      </trkpt>
      <trkpt lat="43.4839" lon="5.2588">
        <ele>176.34</ele>
        <time>2019-02-03T08:49:57Z</time>
      </trkpt>
      <trkpt lat="43.48391" lon="5.25885">
        <ele>179.55</ele>
        <time>2019-02-03T08:50:06Z</time>
      </trkpt>
      <trkpt lat="43.48392" lon="5.25896">
        <ele>182.77</ele>
        <time>2019-02-03T08:50:19Z</time>
      </trkpt>
      <trkpt lat="43.48393" lon="5.25908">
        <ele>186.19</ele>
        <time>2019-02-03T08:50:30Z</time>
      </trkpt>
      <trkpt lat="43.48392" lon="5.25911">
        <ele>187.5</ele>
        <time>2019-02-03T08:50:33Z</time>
      </trkpt>
      <trkpt lat="43.48393" lon="5.25924">
        <ele>190.83</ele>
        <time>2019-02-03T08:50:43Z</time>
      </trkpt>
      <trkpt lat="43.48392" lon="5.2593">
        <ele>191.66</ele>
        <time>2019-02-03T08:51:04Z</time>
      </trkpt>
      <trkpt lat="43.48393" lon="5.25928">
        <ele>190.11</ele>
        <time>2019-02-03T08:51:38Z</time>
      </trkpt>
      <trkpt lat="43.48396" lon="5.25943">
        <ele>188.73</ele>
        <time>2019-02-03T09:01:51Z</time>
      </trkpt>
      <trkpt lat="43.48395" lon="5.25942">
        <ele>188.59</ele>
        <time>2019-02-03T09:01:52Z</time>
      </trkpt>
      <trkpt lat="43.4838" lon="5.25926">
        <ele>191.69</ele>
        <time>2019-02-03T09:02:08Z</time>
      </trkpt>
      <trkpt lat="43.48359" lon="5.25907">
        <ele>192.52</ele>
        <time>2019-02-03T09:02:26Z</time>
      </trkpt>
      <trkpt lat="43.48353" lon="5.25898">
        <ele>193.82</ele>
        <time>2019-02-03T09:02:33Z</time>
      </trkpt>
      <trkpt lat="43.48352" lon="5.25897">
        <ele>193.98</ele>
        <time>2019-02-03T09:02:34Z</time>
      </trkpt>
      <trkpt lat="43.48339" lon="5.25886">
        <ele>197.25</ele>
        <time>2019-02-03T09:02:44Z</time>
      </trkpt>
      <trkpt lat="43.48318" lon="5.25872">
        <ele>194.34</ele>
        <time>2019-02-03T09:03:01Z</time>
      </trkpt>
      <trkpt lat="43.48292" lon="5.25858">
        <ele>195.94</ele>
        <time>2019-02-03T09:03:18Z</time>
      </trkpt>
      <trkpt lat="43.48266" lon="5.25848">
        <ele>197.07</ele>
        <time>2019-02-03T09:03:35Z</time>
      </trkpt>
      <trkpt lat="43.48242" lon="5.2584">
        <ele>198.95</ele>
        <time>2019-02-03T09:03:51Z</time>
      </trkpt>
      <trkpt lat="43.48214" lon="5.25832">
        <ele>200.24</ele>
        <time>2019-02-03T09:04:09Z</time>
      </trkpt>
      <trkpt lat="43.48191" lon="5.25825">
        <ele>199.51</ele>
        <time>2019-02-03T09:04:24Z</time>
      </trkpt>
      <trkpt lat="43.48173" lon="5.25823">
        <ele>197.75</ele>
        <time>2019-02-03T09:04:35Z</time>
      </trkpt>
      <trkpt lat="43.48146" lon="5.25815">
        <ele>199.42</ele>
        <time>2019-02-03T09:04:52Z</time>
      </trkpt>
      <trkpt lat="43.48124" lon="5.25806">
        <ele>197.43</ele>
        <time>2019-02-03T09:05:05Z</time>
      </trkpt>
      <trkpt lat="43.48099" lon="5.25792">
        <ele>198.5</ele>
        <time>2019-02-03T09:05:23Z</time>
      </trkpt>
      <trkpt lat="43.48075" lon="5.25776">
        <ele>200.88</ele>
        <time>2019-02-03T09:05:40Z</time>
      </trkpt>
      <trkpt lat="43.48057" lon="5.2576">
        <ele>200.48</ele>
        <time>2019-02-03T09:05:55Z</time>
      </trkpt>
      <trkpt lat="43.48037" lon="5.25744">
        <ele>200.02</ele>
        <time>2019-02-03T09:06:12Z</time>
      </trkpt>
      <trkpt lat="43.48025" lon="5.25759">
        <ele>197.83</ele>
        <time>2019-02-03T09:06:26Z</time>
      </trkpt>
      <trkpt lat="43.48024" lon="5.25766">
        <ele>197.45</ele>
        <time>2019-02-03T09:06:30Z</time>
      </trkpt>
      <trkpt lat="43.48024" lon="5.25768">
        <ele>197.4</ele>
        <time>2019-02-03T09:06:31Z</time>
      </trkpt>
      <trkpt lat="43.48023" lon="5.2577">
        <ele>197.35</ele>
        <time>2019-02-03T09:06:32Z</time>
      </trkpt>
      <trkpt lat="43.48016" lon="5.25802">
        <ele>195.41</ele>
        <time>2019-02-03T09:06:50Z</time>
      </trkpt>
      <trkpt lat="43.48004" lon="5.25824">
        <ele>196.35</ele>
        <time>2019-02-03T09:07:04Z</time>
      </trkpt>
      <trkpt lat="43.47987" lon="5.25847">
        <ele>194.85</ele>
        <time>2019-02-03T09:07:19Z</time>
      </trkpt>
      <trkpt lat="43.47965" lon="5.25862">
        <ele>193.27</ele>
        <time>2019-02-03T09:07:35Z</time>
      </trkpt>
      <trkpt lat="43.47949" lon="5.25882">
        <ele>192.28</ele>
        <time>2019-02-03T09:07:49Z</time>
      </trkpt>
      <trkpt lat="43.47946" lon="5.25895">
        <ele>191.71</ele>
        <time>2019-02-03T09:07:55Z</time>
      </trkpt>
      <trkpt lat="43.47946" lon="5.25897">
        <ele>191.67</ele>
        <time>2019-02-03T09:07:56Z</time>
      </trkpt>
      <trkpt lat="43.47946" lon="5.25899">
        <ele>191.66</ele>
        <time>2019-02-03T09:07:57Z</time>
      </trkpt>
      <trkpt lat="43.47955" lon="5.25922">
        <ele>191.06</ele>
        <time>2019-02-03T09:08:11Z</time>
      </trkpt>
      <trkpt lat="43.47968" lon="5.25944">
        <ele>189.64</ele>
        <time>2019-02-03T09:08:27Z</time>
      </trkpt>
      <trkpt lat="43.47987" lon="5.25965">
        <ele>188.87</ele>
        <time>2019-02-03T09:08:45Z</time>
      </trkpt>
      <trkpt lat="43.48005" lon="5.25983">
        <ele>189.42</ele>
        <time>2019-02-03T09:09:01Z</time>
      </trkpt>
      <trkpt lat="43.48025" lon="5.26001">
        <ele>188.96</ele>
        <time>2019-02-03T09:09:18Z</time>
      </trkpt>
      <trkpt lat="43.48045" lon="5.26027">
        <ele>189.22</ele>
        <time>2019-02-03T09:09:37Z</time>
      </trkpt>
      <trkpt lat="43.48064" lon="5.26059">
        <ele>190.35</ele>
        <time>2019-02-03T09:09:57Z</time>
      </trkpt>
      <trkpt lat="43.48077" lon="5.26093">
        <ele>190.22</ele>
        <time>2019-02-03T09:10:15Z</time>
      </trkpt>
      <trkpt lat="43.4809" lon="5.26117">
        <ele>189.79</ele>
        <time>2019-02-03T09:10:30Z</time>
      </trkpt>
      <trkpt lat="43.48107" lon="5.26137">
        <ele>188.57</ele>
        <time>2019-02-03T09:10:46Z</time>
      </trkpt>
      <trkpt lat="43.48127" lon="5.26164">
        <ele>189.09</ele>
        <time>2019-02-03T09:11:04Z</time>
      </trkpt>
      <trkpt lat="43.48143" lon="5.26191">
        <ele>188.69</ele>
        <time>2019-02-03T09:11:20Z</time>
      </trkpt>
      <trkpt lat="43.48153" lon="5.2621">
        <ele>187.11</ele>
        <time>2019-02-03T09:11:31Z</time>
      </trkpt>
      <trkpt lat="43.48154" lon="5.26211">
        <ele>187.11</ele>
        <time>2019-02-03T09:11:32Z</time>
      </trkpt>
      <trkpt lat="43.4817" lon="5.26239">
        <ele>186.8</ele>
        <time>2019-02-03T09:11:49Z</time>
      </trkpt>
      <trkpt lat="43.48179" lon="5.26266">
        <ele>186.8</ele>
        <time>2019-02-03T09:12:04Z</time>
      </trkpt>
      <trkpt lat="43.48186" lon="5.263">
        <ele>186.56</ele>
        <time>2019-02-03T09:12:21Z</time>
      </trkpt>
      <trkpt lat="43.48197" lon="5.26325">
        <ele>185.6</ele>
        <time>2019-02-03T09:12:36Z</time>
      </trkpt>
      <trkpt lat="43.48199" lon="5.26327">
        <ele>185.63</ele>
        <time>2019-02-03T09:12:37Z</time>
      </trkpt>
      <trkpt lat="43.48208" lon="5.26354">
        <ele>185.01</ele>
        <time>2019-02-03T09:12:51Z</time>
      </trkpt>
      <trkpt lat="43.48216" lon="5.26386">
        <ele>184.35</ele>
        <time>2019-02-03T09:13:07Z</time>
      </trkpt>
      <trkpt lat="43.48231" lon="5.26408">
        <ele>183.89</ele>
        <time>2019-02-03T09:13:23Z</time>
      </trkpt>
      <trkpt lat="43.48232" lon="5.26431">
        <ele>182.15</ele>
        <time>2019-02-03T09:13:36Z</time>
      </trkpt>
      <trkpt lat="43.48227" lon="5.26466">
        <ele>180.34</ele>
        <time>2019-02-03T09:13:52Z</time>
      </trkpt>
      <trkpt lat="43.48226" lon="5.26476">
        <ele>179.39</ele>
        <time>2019-02-03T09:13:57Z</time>
      </trkpt>
      <trkpt lat="43.48225" lon="5.26478">
        <ele>179.21</ele>
        <time>2019-02-03T09:13:58Z</time>
      </trkpt>
      <trkpt lat="43.48224" lon="5.2648">
        <ele>179.07</ele>
        <time>2019-02-03T09:13:59Z</time>
      </trkpt>
      <trkpt lat="43.48223" lon="5.26482">
        <ele>178.99</ele>
        <time>2019-02-03T09:14:00Z</time>
      </trkpt>
      <trkpt lat="43.48223" lon="5.26484">
        <ele>178.92</ele>
        <time>2019-02-03T09:14:01Z</time>
      </trkpt>
      <trkpt lat="43.48222" lon="5.26486">
        <ele>178.84</ele>
        <time>2019-02-03T09:14:02Z</time>
      </trkpt>
      <trkpt lat="43.48222" lon="5.26488">
        <ele>178.81</ele>
        <time>2019-02-03T09:14:03Z</time>
      </trkpt>
      <trkpt lat="43.48214" lon="5.26504">
        <ele>178.36</ele>
        <time>2019-02-03T09:14:15Z</time>
      </trkpt>
      <trkpt lat="43.48213" lon="5.26507">
        <ele>178.34</ele>
        <time>2019-02-03T09:14:17Z</time>
      </trkpt>
      <trkpt lat="43.48195" lon="5.26529">
        <ele>177.6</ele>
        <time>2019-02-03T09:14:33Z</time>
      </trkpt>
      <trkpt lat="43.48178" lon="5.26551">
        <ele>176.14</ele>
        <time>2019-02-03T09:14:49Z</time>
      </trkpt>
      <trkpt lat="43.48177" lon="5.26553">
        <ele>176.02</ele>
        <time>2019-02-03T09:14:50Z</time>
      </trkpt>
      <trkpt lat="43.48176" lon="5.26554">
        <ele>175.83</ele>
        <time>2019-02-03T09:14:51Z</time>
      </trkpt>
      <trkpt lat="43.48174" lon="5.26556">
        <ele>175.76</ele>
        <time>2019-02-03T09:14:52Z</time>
      </trkpt>
      <trkpt lat="43.48173" lon="5.26558">
        <ele>175.68</ele>
        <time>2019-02-03T09:14:53Z</time>
      </trkpt>
      <trkpt lat="43.48167" lon="5.26568">
        <ele>175.37</ele>
        <time>2019-02-03T09:15:00Z</time>
      </trkpt>
      <trkpt lat="43.48164" lon="5.26572">
        <ele>175.45</ele>
        <time>2019-02-03T09:15:03Z</time>
      </trkpt>
      <trkpt lat="43.48163" lon="5.26574">
        <ele>175.49</ele>
        <time>2019-02-03T09:15:04Z</time>
      </trkpt>
      <trkpt lat="43.48162" lon="5.26576">
        <ele>175.52</ele>
        <time>2019-02-03T09:15:05Z</time>
      </trkpt>
      <trkpt lat="43.48147" lon="5.26601">
        <ele>174.5</ele>
        <time>2019-02-03T09:15:19Z</time>
      </trkpt>
      <trkpt lat="43.48132" lon="5.26622">
        <ele>175.09</ele>
        <time>2019-02-03T09:15:33Z</time>
      </trkpt>
      <trkpt lat="43.48122" lon="5.26644">
        <ele>176</ele>
        <time>2019-02-03T09:15:47Z</time>
      </trkpt>
      <trkpt lat="43.48121" lon="5.2666">
        <ele>177.52</ele>
        <time>2019-02-03T09:15:59Z</time>
      </trkpt>
      <trkpt lat="43.48115" lon="5.26687">
        <ele>178.6</ele>
        <time>2019-02-03T09:16:11Z</time>
      </trkpt>
      <trkpt lat="43.48113" lon="5.26696">
        <ele>179.67</ele>
        <time>2019-02-03T09:16:15Z</time>
      </trkpt>
      <trkpt lat="43.48113" lon="5.26698">
        <ele>179.79</ele>
        <time>2019-02-03T09:16:16Z</time>
      </trkpt>
      <trkpt lat="43.48113" lon="5.267">
        <ele>179.88</ele>
        <time>2019-02-03T09:16:17Z</time>
      </trkpt>
      <trkpt lat="43.48112" lon="5.26702">
        <ele>179.97</ele>
        <time>2019-02-03T09:16:18Z</time>
      </trkpt>
      <trkpt lat="43.48108" lon="5.26727">
        <ele>180.99</ele>
        <time>2019-02-03T09:16:31Z</time>
      </trkpt>
      <trkpt lat="43.48102" lon="5.26756">
        <ele>182.64</ele>
        <time>2019-02-03T09:16:46Z</time>
      </trkpt>
      <trkpt lat="43.48095" lon="5.26786">
        <ele>182.66</ele>
        <time>2019-02-03T09:17:03Z</time>
      </trkpt>
      <trkpt lat="43.48093" lon="5.26793">
        <ele>182.57</ele>
        <time>2019-02-03T09:17:07Z</time>
      </trkpt>
      <trkpt lat="43.48089" lon="5.2681">
        <ele>182.59</ele>
        <time>2019-02-03T09:17:17Z</time>
      </trkpt>
      <trkpt lat="43.48088" lon="5.26812">
        <ele>182.79</ele>
        <time>2019-02-03T09:17:18Z</time>
      </trkpt>
      <trkpt lat="43.48087" lon="5.26814">
        <ele>183.2</ele>
        <time>2019-02-03T09:17:19Z</time>
      </trkpt>
      <trkpt lat="43.48086" lon="5.26816">
        <ele>183.36</ele>
        <time>2019-02-03T09:17:20Z</time>
      </trkpt>
      <trkpt lat="43.48086" lon="5.26818">
        <ele>183.5</ele>
        <time>2019-02-03T09:17:21Z</time>
      </trkpt>
      <trkpt lat="43.48086" lon="5.2682">
        <ele>183.61</ele>
        <time>2019-02-03T09:17:22Z</time>
      </trkpt>
      <trkpt lat="43.48084" lon="5.26848">
        <ele>182.98</ele>
        <time>2019-02-03T09:17:38Z</time>
      </trkpt>
      <trkpt lat="43.48084" lon="5.2685">
        <ele>183.02</ele>
        <time>2019-02-03T09:17:39Z</time>
      </trkpt>
      <trkpt lat="43.48086" lon="5.2687">
        <ele>183.11</ele>
        <time>2019-02-03T09:17:51Z</time>
      </trkpt>
      <trkpt lat="43.48087" lon="5.26872">
        <ele>183.16</ele>
        <time>2019-02-03T09:17:52Z</time>
      </trkpt>
      <trkpt lat="43.48087" lon="5.26873">
        <ele>183.16</ele>
        <time>2019-02-03T09:17:53Z</time>
      </trkpt>
      <trkpt lat="43.48087" lon="5.26875">
        <ele>183.2</ele>
        <time>2019-02-03T09:17:54Z</time>
      </trkpt>
      <trkpt lat="43.48087" lon="5.26877">
        <ele>183.29</ele>
        <time>2019-02-03T09:17:55Z</time>
      </trkpt>
      <trkpt lat="43.48087" lon="5.26878">
        <ele>183.36</ele>
        <time>2019-02-03T09:17:56Z</time>
      </trkpt>
      <trkpt lat="43.48088" lon="5.26885">
        <ele>183.77</ele>
        <time>2019-02-03T09:18:00Z</time>
      </trkpt>
      <trkpt lat="43.48089" lon="5.26887">
        <ele>183.85</ele>
        <time>2019-02-03T09:18:01Z</time>
      </trkpt>
      <trkpt lat="43.4809" lon="5.26888">
        <ele>183.94</ele>
        <time>2019-02-03T09:18:02Z</time>
      </trkpt>
      <trkpt lat="43.48091" lon="5.2689">
        <ele>184.06</ele>
        <time>2019-02-03T09:18:03Z</time>
      </trkpt>
      <trkpt lat="43.48096" lon="5.26913">
        <ele>186.54</ele>
        <time>2019-02-03T09:18:18Z</time>
      </trkpt>
      <trkpt lat="43.48096" lon="5.26914">
        <ele>186.55</ele>
        <time>2019-02-03T09:18:19Z</time>
      </trkpt>
      <trkpt lat="43.48097" lon="5.26916">
        <ele>186.56</ele>
        <time>2019-02-03T09:18:20Z</time>
      </trkpt>
      <trkpt lat="43.48098" lon="5.26921">
        <ele>186.94</ele>
        <time>2019-02-03T09:18:23Z</time>
      </trkpt>
      <trkpt lat="43.48098" lon="5.26922">
        <ele>187.12</ele>
        <time>2019-02-03T09:18:24Z</time>
      </trkpt>
      <trkpt lat="43.481" lon="5.26941">
        <ele>189.29</ele>
        <time>2019-02-03T09:18:37Z</time>
      </trkpt>
      <trkpt lat="43.48101" lon="5.26943">
        <ele>189.45</ele>
        <time>2019-02-03T09:18:38Z</time>
      </trkpt>
      <trkpt lat="43.48101" lon="5.26945">
        <ele>189.56</ele>
        <time>2019-02-03T09:18:39Z</time>
      </trkpt>
      <trkpt lat="43.48102" lon="5.26952">
        <ele>189.68</ele>
        <time>2019-02-03T09:18:43Z</time>
      </trkpt>
      <trkpt lat="43.48103" lon="5.26955">
        <ele>189.54</ele>
        <time>2019-02-03T09:18:45Z</time>
      </trkpt>
      <trkpt lat="43.48111" lon="5.26974">
        <ele>191.23</ele>
        <time>2019-02-03T09:18:58Z</time>
      </trkpt>
      <trkpt lat="43.48119" lon="5.26992">
        <ele>194.44</ele>
        <time>2019-02-03T09:19:12Z</time>
      </trkpt>
      <trkpt lat="43.4812" lon="5.26995">
        <ele>195.29</ele>
        <time>2019-02-03T09:19:14Z</time>
      </trkpt>
      <trkpt lat="43.48126" lon="5.27008">
        <ele>198.3</ele>
        <time>2019-02-03T09:19:28Z</time>
      </trkpt>
      <trkpt lat="43.48128" lon="5.27018">
        <ele>198.69</ele>
        <time>2019-02-03T09:19:35Z</time>
      </trkpt>
      <trkpt lat="43.48127" lon="5.27034">
        <ele>199.5</ele>
        <time>2019-02-03T09:19:46Z</time>
      </trkpt>
      <trkpt lat="43.48124" lon="5.27054">
        <ele>201.46</ele>
        <time>2019-02-03T09:20:00Z</time>
      </trkpt>
      <trkpt lat="43.48118" lon="5.27073">
        <ele>203.38</ele>
        <time>2019-02-03T09:20:15Z</time>
      </trkpt>
      <trkpt lat="43.48116" lon="5.27075">
        <ele>203.58</ele>
        <time>2019-02-03T09:20:18Z</time>
      </trkpt>
      <trkpt lat="43.48115" lon="5.27077">
        <ele>203.59</ele>
        <time>2019-02-03T09:20:19Z</time>
      </trkpt>
      <trkpt lat="43.48114" lon="5.27078">
        <ele>203.6</ele>
        <time>2019-02-03T09:20:20Z</time>
      </trkpt>
      <trkpt lat="43.48092" lon="5.2709">
        <ele>204.2</ele>
        <time>2019-02-03T09:20:36Z</time>
      </trkpt>
      <trkpt lat="43.4807" lon="5.27098">
        <ele>203.76</ele>
        <time>2019-02-03T09:20:51Z</time>
      </trkpt>
      <trkpt lat="43.48052" lon="5.27111">
        <ele>203.11</ele>
        <time>2019-02-03T09:21:04Z</time>
      </trkpt>
      <trkpt lat="43.48049" lon="5.27114">
        <ele>202.85</ele>
        <time>2019-02-03T09:21:06Z</time>
      </trkpt>
      <trkpt lat="43.48032" lon="5.27139">
        <ele>201.76</ele>
        <time>2019-02-03T09:21:22Z</time>
      </trkpt>
      <trkpt lat="43.48021" lon="5.27163">
        <ele>200.75</ele>
        <time>2019-02-03T09:21:36Z</time>
      </trkpt>
      <trkpt lat="43.48014" lon="5.27186">
        <ele>200.59</ele>
        <time>2019-02-03T09:21:48Z</time>
      </trkpt>
      <trkpt lat="43.48005" lon="5.27215">
        <ele>198.29</ele>
        <time>2019-02-03T09:22:04Z</time>
      </trkpt>
      <trkpt lat="43.47985" lon="5.27243">
        <ele>198.86</ele>
        <time>2019-02-03T09:22:21Z</time>
      </trkpt>
      <trkpt lat="43.47975" lon="5.27277">
        <ele>198.27</ele>
        <time>2019-02-03T09:22:38Z</time>
      </trkpt>
      <trkpt lat="43.47974" lon="5.27309">
        <ele>196.2</ele>
        <time>2019-02-03T09:22:54Z</time>
      </trkpt>
      <trkpt lat="43.47973" lon="5.27338">
        <ele>194.48</ele>
        <time>2019-02-03T09:23:08Z</time>
      </trkpt>
      <trkpt lat="43.47973" lon="5.2734">
        <ele>194.47</ele>
        <time>2019-02-03T09:23:09Z</time>
      </trkpt>
      <trkpt lat="43.47972" lon="5.27342">
        <ele>194.36</ele>
        <time>2019-02-03T09:23:10Z</time>
      </trkpt>
      <trkpt lat="43.47972" lon="5.27344">
        <ele>194.29</ele>
        <time>2019-02-03T09:23:11Z</time>
      </trkpt>
      <trkpt lat="43.47972" lon="5.27346">
        <ele>194.28</ele>
        <time>2019-02-03T09:23:12Z</time>
      </trkpt>
      <trkpt lat="43.47967" lon="5.27373">
        <ele>193.3</ele>
        <time>2019-02-03T09:23:26Z</time>
      </trkpt>
      <trkpt lat="43.47968" lon="5.27375">
        <ele>193.21</ele>
        <time>2019-02-03T09:23:27Z</time>
      </trkpt>
      <trkpt lat="43.47967" lon="5.27377">
        <ele>193.09</ele>
        <time>2019-02-03T09:23:28Z</time>
      </trkpt>
      <trkpt lat="43.47967" lon="5.27379">
        <ele>192.95</ele>
        <time>2019-02-03T09:23:29Z</time>
      </trkpt>
      <trkpt lat="43.47966" lon="5.27381">
        <ele>192.82</ele>
        <time>2019-02-03T09:23:30Z</time>
      </trkpt>
      <trkpt lat="43.47966" lon="5.27383">
        <ele>192.71</ele>
        <time>2019-02-03T09:23:31Z</time>
      </trkpt>
      <trkpt lat="43.47966" lon="5.27385">
        <ele>192.57</ele>
        <time>2019-02-03T09:23:32Z</time>
      </trkpt>
      <trkpt lat="43.47965" lon="5.27414">
        <ele>191.18</ele>
        <time>2019-02-03T09:23:46Z</time>
      </trkpt>
      <trkpt lat="43.47967" lon="5.27429">
        <ele>191.44</ele>
        <time>2019-02-03T09:23:53Z</time>
      </trkpt>
      <trkpt lat="43.4797" lon="5.27452">
        <ele>190.9</ele>
        <time>2019-02-03T09:24:05Z</time>
      </trkpt>
      <trkpt lat="43.47971" lon="5.27454">
        <ele>190.85</ele>
        <time>2019-02-03T09:24:06Z</time>
      </trkpt>
      <trkpt lat="43.47971" lon="5.27456">
        <ele>190.8</ele>
        <time>2019-02-03T09:24:07Z</time>
      </trkpt>
      <trkpt lat="43.4797" lon="5.27458">
        <ele>190.75</ele>
        <time>2019-02-03T09:24:08Z</time>
      </trkpt>
      <trkpt lat="43.4797" lon="5.2746">
        <ele>190.69</ele>
        <time>2019-02-03T09:24:09Z</time>
      </trkpt>
      <trkpt lat="43.4797" lon="5.27463">
        <ele>190.61</ele>
        <time>2019-02-03T09:24:10Z</time>
      </trkpt>
      <trkpt lat="43.4797" lon="5.27465">
        <ele>190.38</ele>
        <time>2019-02-03T09:24:11Z</time>
      </trkpt>
      <trkpt lat="43.4797" lon="5.27467">
        <ele>190.17</ele>
        <time>2019-02-03T09:24:12Z</time>
      </trkpt>
      <trkpt lat="43.47968" lon="5.27498">
        <ele>187.66</ele>
        <time>2019-02-03T09:24:27Z</time>
      </trkpt>
      <trkpt lat="43.47968" lon="5.275">
        <ele>187.53</ele>
        <time>2019-02-03T09:24:28Z</time>
      </trkpt>
      <trkpt lat="43.47968" lon="5.27502">
        <ele>187.43</ele>
        <time>2019-02-03T09:24:29Z</time>
      </trkpt>
      <trkpt lat="43.47968" lon="5.27504">
        <ele>187.35</ele>
        <time>2019-02-03T09:24:30Z</time>
      </trkpt>
      <trkpt lat="43.47967" lon="5.27505">
        <ele>187.3</ele>
        <time>2019-02-03T09:24:31Z</time>
      </trkpt>
      <trkpt lat="43.47967" lon="5.27507">
        <ele>187.27</ele>
        <time>2019-02-03T09:24:32Z</time>
      </trkpt>
      <trkpt lat="43.47967" lon="5.2751">
        <ele>187.25</ele>
        <time>2019-02-03T09:24:33Z</time>
      </trkpt>
      <trkpt lat="43.47962" lon="5.27523">
        <ele>187.39</ele>
        <time>2019-02-03T09:24:41Z</time>
      </trkpt>
      <trkpt lat="43.47944" lon="5.2754">
        <ele>186.63</ele>
        <time>2019-02-03T09:24:55Z</time>
      </trkpt>
      <trkpt lat="43.4792" lon="5.2755">
        <ele>185.83</ele>
        <time>2019-02-03T09:25:09Z</time>
      </trkpt>
      <trkpt lat="43.47899" lon="5.2756">
        <ele>187.15</ele>
        <time>2019-02-03T09:25:24Z</time>
      </trkpt>
      <trkpt lat="43.47879" lon="5.2758">
        <ele>187.22</ele>
        <time>2019-02-03T09:25:40Z</time>
      </trkpt>
      <trkpt lat="43.47862" lon="5.27608">
        <ele>185.89</ele>
        <time>2019-02-03T09:25:56Z</time>
      </trkpt>
      <trkpt lat="43.47853" lon="5.2764">
        <ele>183.82</ele>
        <time>2019-02-03T09:26:11Z</time>
      </trkpt>
      <trkpt lat="43.47841" lon="5.27666">
        <ele>181.04</ele>
        <time>2019-02-03T09:26:27Z</time>
      </trkpt>
      <trkpt lat="43.47822" lon="5.27683">
        <ele>181.9</ele>
        <time>2019-02-03T09:26:44Z</time>
      </trkpt>
      <trkpt lat="43.47807" lon="5.27698">
        <ele>182.91</ele>
        <time>2019-02-03T09:26:59Z</time>
      </trkpt>
      <trkpt lat="43.47779" lon="5.27727">
        <ele>180.81</ele>
        <time>2019-02-03T09:27:20Z</time>
      </trkpt>
      <trkpt lat="43.47774" lon="5.27746">
        <ele>179.56</ele>
        <time>2019-02-03T09:27:32Z</time>
      </trkpt>
      <trkpt lat="43.4779" lon="5.27771">
        <ele>177.28</ele>
        <time>2019-02-03T09:27:48Z</time>
      </trkpt>
      <trkpt lat="43.47797" lon="5.27779">
        <ele>176.35</ele>
        <time>2019-02-03T09:27:55Z</time>
      </trkpt>
      <trkpt lat="43.47798" lon="5.2778">
        <ele>176.06</ele>
        <time>2019-02-03T09:27:56Z</time>
      </trkpt>
      <trkpt lat="43.47799" lon="5.27782">
        <ele>175.77</ele>
        <time>2019-02-03T09:27:57Z</time>
      </trkpt>
      <trkpt lat="43.47799" lon="5.27783">
        <ele>175.5</ele>
        <time>2019-02-03T09:27:58Z</time>
      </trkpt>
      <trkpt lat="43.478" lon="5.27785">
        <ele>175.26</ele>
        <time>2019-02-03T09:27:59Z</time>
      </trkpt>
      <trkpt lat="43.47803" lon="5.27817">
        <ele>173.14</ele>
        <time>2019-02-03T09:28:16Z</time>
      </trkpt>
      <trkpt lat="43.47819" lon="5.27838">
        <ele>172.3</ele>
        <time>2019-02-03T09:28:32Z</time>
      </trkpt>
      <trkpt lat="43.47832" lon="5.27856">
        <ele>170.52</ele>
        <time>2019-02-03T09:28:46Z</time>
      </trkpt>
      <trkpt lat="43.4784" lon="5.27883">
        <ele>169.01</ele>
        <time>2019-02-03T09:29:01Z</time>
      </trkpt>
      <trkpt lat="43.47835" lon="5.27915">
        <ele>169.12</ele>
        <time>2019-02-03T09:29:17Z</time>
      </trkpt>
      <trkpt lat="43.47824" lon="5.27937">
        <ele>169.93</ele>
        <time>2019-02-03T09:29:32Z</time>
      </trkpt>
      <trkpt lat="43.47822" lon="5.2794">
        <ele>170</ele>
        <time>2019-02-03T09:29:34Z</time>
      </trkpt>
      <trkpt lat="43.47818" lon="5.27948">
        <ele>168.99</ele>
        <time>2019-02-03T09:29:48Z</time>
      </trkpt>
      <trkpt lat="43.47818" lon="5.2795">
        <ele>168.83</ele>
        <time>2019-02-03T09:29:49Z</time>
      </trkpt>
      <trkpt lat="43.47818" lon="5.27952">
        <ele>168.77</ele>
        <time>2019-02-03T09:29:50Z</time>
      </trkpt>
      <trkpt lat="43.47817" lon="5.27962">
        <ele>170.27</ele>
        <time>2019-02-03T09:29:57Z</time>
      </trkpt>
      <trkpt lat="43.47817" lon="5.27964">
        <ele>170.42</ele>
        <time>2019-02-03T09:29:58Z</time>
      </trkpt>
      <trkpt lat="43.47817" lon="5.27965">
        <ele>170.54</ele>
        <time>2019-02-03T09:29:59Z</time>
      </trkpt>
      <trkpt lat="43.47813" lon="5.27994">
        <ele>173</ele>
        <time>2019-02-03T09:30:17Z</time>
      </trkpt>
      <trkpt lat="43.47813" lon="5.27999">
        <ele>173.85</ele>
        <time>2019-02-03T09:30:20Z</time>
      </trkpt>
      <trkpt lat="43.47813" lon="5.28001">
        <ele>174.23</ele>
        <time>2019-02-03T09:30:21Z</time>
      </trkpt>
      <trkpt lat="43.47815" lon="5.28025">
        <ele>175.68</ele>
        <time>2019-02-03T09:30:36Z</time>
      </trkpt>
      <trkpt lat="43.47816" lon="5.28035">
        <ele>175.36</ele>
        <time>2019-02-03T09:30:43Z</time>
      </trkpt>
      <trkpt lat="43.47821" lon="5.28052">
        <ele>176.86</ele>
        <time>2019-02-03T09:30:56Z</time>
      </trkpt>
      <trkpt lat="43.47823" lon="5.28063">
        <ele>177.73</ele>
        <time>2019-02-03T09:31:03Z</time>
      </trkpt>
      <trkpt lat="43.47824" lon="5.28064">
        <ele>177.83</ele>
        <time>2019-02-03T09:31:04Z</time>
      </trkpt>
      <trkpt lat="43.47829" lon="5.28071">
        <ele>179.73</ele>
        <time>2019-02-03T09:31:20Z</time>
      </trkpt>
      <trkpt lat="43.47827" lon="5.28073">
        <ele>180.87</ele>
        <time>2019-02-03T09:31:58Z</time>
      </trkpt>
      <trkpt lat="43.47831" lon="5.28089">
        <ele>181.15</ele>
        <time>2019-02-03T09:32:18Z</time>
      </trkpt>
      <trkpt lat="43.47833" lon="5.28092">
        <ele>181.33</ele>
        <time>2019-02-03T09:32:20Z</time>
      </trkpt>
      <trkpt lat="43.47833" lon="5.28094">
        <ele>181.36</ele>
        <time>2019-02-03T09:32:21Z</time>
      </trkpt>
      <trkpt lat="43.47839" lon="5.28115">
        <ele>182.57</ele>
        <time>2019-02-03T09:32:36Z</time>
      </trkpt>
      <trkpt lat="43.47839" lon="5.28117">
        <ele>182.75</ele>
        <time>2019-02-03T09:32:37Z</time>
      </trkpt>
      <trkpt lat="43.47839" lon="5.28119">
        <ele>182.91</ele>
        <time>2019-02-03T09:32:38Z</time>
      </trkpt>
      <trkpt lat="43.47838" lon="5.2812">
        <ele>183.13</ele>
        <time>2019-02-03T09:32:39Z</time>
      </trkpt>
      <trkpt lat="43.47838" lon="5.28122">
        <ele>183.38</ele>
        <time>2019-02-03T09:32:40Z</time>
      </trkpt>
      <trkpt lat="43.47833" lon="5.28141">
        <ele>184.09</ele>
        <time>2019-02-03T09:32:51Z</time>
      </trkpt>
      <trkpt lat="43.47828" lon="5.28152">
        <ele>183.83</ele>
        <time>2019-02-03T09:32:59Z</time>
      </trkpt>
      <trkpt lat="43.47827" lon="5.28153">
        <ele>184.08</ele>
        <time>2019-02-03T09:33:00Z</time>
      </trkpt>
      <trkpt lat="43.47826" lon="5.28154">
        <ele>184.39</ele>
        <time>2019-02-03T09:33:01Z</time>
      </trkpt>
      <trkpt lat="43.47825" lon="5.28156">
        <ele>184.66</ele>
        <time>2019-02-03T09:33:02Z</time>
      </trkpt>
      <trkpt lat="43.47825" lon="5.28157">
        <ele>184.87</ele>
        <time>2019-02-03T09:33:03Z</time>
      </trkpt>
      <trkpt lat="43.47813" lon="5.28182">
        <ele>185.98</ele>
        <time>2019-02-03T09:33:18Z</time>
      </trkpt>
      <trkpt lat="43.47804" lon="5.28204">
        <ele>186.74</ele>
        <time>2019-02-03T09:33:32Z</time>
      </trkpt>
      <trkpt lat="43.47791" lon="5.28228">
        <ele>188.02</ele>
        <time>2019-02-03T09:33:47Z</time>
      </trkpt>
      <trkpt lat="43.47783" lon="5.28248">
        <ele>188.92</ele>
        <time>2019-02-03T09:34:00Z</time>
      </trkpt>
      <trkpt lat="43.47773" lon="5.28273">
        <ele>191.4</ele>
        <time>2019-02-03T09:34:16Z</time>
      </trkpt>
      <trkpt lat="43.47771" lon="5.28276">
        <ele>191.63</ele>
        <time>2019-02-03T09:34:18Z</time>
      </trkpt>
      <trkpt lat="43.47765" lon="5.28298">
        <ele>193.59</ele>
        <time>2019-02-03T09:34:33Z</time>
      </trkpt>
      <trkpt lat="43.47758" lon="5.28319">
        <ele>196.33</ele>
        <time>2019-02-03T09:34:47Z</time>
      </trkpt>
      <trkpt lat="43.4775" lon="5.28341">
        <ele>198.28</ele>
        <time>2019-02-03T09:35:03Z</time>
      </trkpt>
      <trkpt lat="43.47744" lon="5.28359">
        <ele>200.72</ele>
        <time>2019-02-03T09:35:17Z</time>
      </trkpt>
      <trkpt lat="43.4774" lon="5.28381">
        <ele>203.31</ele>
        <time>2019-02-03T09:35:33Z</time>
      </trkpt>
      <trkpt lat="43.47736" lon="5.28406">
        <ele>205.76</ele>
        <time>2019-02-03T09:35:50Z</time>
      </trkpt>
      <trkpt lat="43.4773" lon="5.28426">
        <ele>208.68</ele>
        <time>2019-02-03T09:36:05Z</time>
      </trkpt>
      <trkpt lat="43.47728" lon="5.28442">
        <ele>210.12</ele>
        <time>2019-02-03T09:36:18Z</time>
      </trkpt>
      <trkpt lat="43.47725" lon="5.28462">
        <ele>213.15</ele>
        <time>2019-02-03T09:36:34Z</time>
      </trkpt>
      <trkpt lat="43.4772" lon="5.28478">
        <ele>216.15</ele>
        <time>2019-02-03T09:36:46Z</time>
      </trkpt>
      <trkpt lat="43.47718" lon="5.2848">
        <ele>217.14</ele>
        <time>2019-02-03T09:37:10Z</time>
      </trkpt>
      <trkpt lat="43.47718" lon="5.2848">
        <ele>217.36</ele>
        <time>2019-02-03T09:37:57Z</time>
      </trkpt>
      <trkpt lat="43.47721" lon="5.28482">
        <ele>217.19</ele>
        <time>2019-02-03T09:38:14Z</time>
      </trkpt>
      <trkpt lat="43.47731" lon="5.28489">
        <ele>215.89</ele>
        <time>2019-02-03T09:38:27Z</time>
      </trkpt>
      <trkpt lat="43.47732" lon="5.28488">
        <ele>215.91</ele>
        <time>2019-02-03T09:38:28Z</time>
      </trkpt>
      <trkpt lat="43.47733" lon="5.28486">
        <ele>215.99</ele>
        <time>2019-02-03T09:38:30Z</time>
      </trkpt>
      <trkpt lat="43.47734" lon="5.28484">
        <ele>216.11</ele>
        <time>2019-02-03T09:38:31Z</time>
      </trkpt>
      <trkpt lat="43.47735" lon="5.28482">
        <ele>216.16</ele>
        <time>2019-02-03T09:38:32Z</time>
      </trkpt>
      <trkpt lat="43.47735" lon="5.28481">
        <ele>216.1</ele>
        <time>2019-02-03T09:38:33Z</time>
      </trkpt>
      <trkpt lat="43.47736" lon="5.28479">
        <ele>215.99</ele>
        <time>2019-02-03T09:38:34Z</time>
      </trkpt>
      <trkpt lat="43.47741" lon="5.28462">
        <ele>215.78</ele>
        <time>2019-02-03T09:38:47Z</time>
      </trkpt>
      <trkpt lat="43.47742" lon="5.28458">
        <ele>217.76</ele>
        <time>2019-02-03T09:38:50Z</time>
      </trkpt>
      <trkpt lat="43.47742" lon="5.28456">
        <ele>218.09</ele>
        <time>2019-02-03T09:38:51Z</time>
      </trkpt>
      <trkpt lat="43.47751" lon="5.2843">
        <ele>217.64</ele>
        <time>2019-02-03T09:39:06Z</time>
      </trkpt>
      <trkpt lat="43.47766" lon="5.28404">
        <ele>217.35</ele>
        <time>2019-02-03T09:39:22Z</time>
      </trkpt>
      <trkpt lat="43.47781" lon="5.28383">
        <ele>216.53</ele>
        <time>2019-02-03T09:39:38Z</time>
      </trkpt>
      <trkpt lat="43.47793" lon="5.28357">
        <ele>218.32</ele>
        <time>2019-02-03T09:39:54Z</time>
      </trkpt>
      <trkpt lat="43.47804" lon="5.2834">
        <ele>219.09</ele>
        <time>2019-02-03T09:40:08Z</time>
      </trkpt>
      <trkpt lat="43.47814" lon="5.28327">
        <ele>218.03</ele>
        <time>2019-02-03T09:40:19Z</time>
      </trkpt>
      <trkpt lat="43.47821" lon="5.28317">
        <ele>218.41</ele>
        <time>2019-02-03T09:40:27Z</time>
      </trkpt>
      <trkpt lat="43.47834" lon="5.28304">
        <ele>218.69</ele>
        <time>2019-02-03T09:40:40Z</time>
      </trkpt>
      <trkpt lat="43.47848" lon="5.28286">
        <ele>214.86</ele>
        <time>2019-02-03T09:40:53Z</time>
      </trkpt>
      <trkpt lat="43.47864" lon="5.2826">
        <ele>217.25</ele>
        <time>2019-02-03T09:41:10Z</time>
      </trkpt>
      <trkpt lat="43.47883" lon="5.28243">
        <ele>218.3</ele>
        <time>2019-02-03T09:41:26Z</time>
      </trkpt>
      <trkpt lat="43.47894" lon="5.28242">
        <ele>220.54</ele>
        <time>2019-02-03T09:41:37Z</time>
      </trkpt>
      <trkpt lat="43.47896" lon="5.28242">
        <ele>220.76</ele>
        <time>2019-02-03T09:41:38Z</time>
      </trkpt>
      <trkpt lat="43.47897" lon="5.28241">
        <ele>220.95</ele>
        <time>2019-02-03T09:41:39Z</time>
      </trkpt>
      <trkpt lat="43.47899" lon="5.28241">
        <ele>221.16</ele>
        <time>2019-02-03T09:41:40Z</time>
      </trkpt>
      <trkpt lat="43.47901" lon="5.28241">
        <ele>221.17</ele>
        <time>2019-02-03T09:41:41Z</time>
      </trkpt>
      <trkpt lat="43.47903" lon="5.28242">
        <ele>221.04</ele>
        <time>2019-02-03T09:41:42Z</time>
      </trkpt>
      <trkpt lat="43.47924" lon="5.28254">
        <ele>220.26</ele>
        <time>2019-02-03T09:41:57Z</time>
      </trkpt>
      <trkpt lat="43.47924" lon="5.28256">
        <ele>220.19</ele>
        <time>2019-02-03T09:41:58Z</time>
      </trkpt>
      <trkpt lat="43.47924" lon="5.28258">
        <ele>220.12</ele>
        <time>2019-02-03T09:41:59Z</time>
      </trkpt>
      <trkpt lat="43.47931" lon="5.28279">
        <ele>218.45</ele>
        <time>2019-02-03T09:42:13Z</time>
      </trkpt>
      <trkpt lat="43.47944" lon="5.2828">
        <ele>218.86</ele>
        <time>2019-02-03T09:42:22Z</time>
      </trkpt>
      <trkpt lat="43.47956" lon="5.28276">
        <ele>218.09</ele>
        <time>2019-02-03T09:42:33Z</time>
      </trkpt>
      <trkpt lat="43.47965" lon="5.28265">
        <ele>218.11</ele>
        <time>2019-02-03T09:42:42Z</time>
      </trkpt>
      <trkpt lat="43.47978" lon="5.28242">
        <ele>217.61</ele>
        <time>2019-02-03T09:42:58Z</time>
      </trkpt>
      <trkpt lat="43.4799" lon="5.2822">
        <ele>217.54</ele>
        <time>2019-02-03T09:43:12Z</time>
      </trkpt>
      <trkpt lat="43.47994" lon="5.28193">
        <ele>218.4</ele>
        <time>2019-02-03T09:43:27Z</time>
      </trkpt>
      <trkpt lat="43.48001" lon="5.28173">
        <ele>219.57</ele>
        <time>2019-02-03T09:43:42Z</time>
      </trkpt>
      <trkpt lat="43.48018" lon="5.28168">
        <ele>221.38</ele>
        <time>2019-02-03T09:43:56Z</time>
      </trkpt>
      <trkpt lat="43.48035" lon="5.28165">
        <ele>221.74</ele>
        <time>2019-02-03T09:44:10Z</time>
      </trkpt>
      <trkpt lat="43.48052" lon="5.28161">
        <ele>221.94</ele>
        <time>2019-02-03T09:44:23Z</time>
      </trkpt>
      <trkpt lat="43.48073" lon="5.28157">
        <ele>221.97</ele>
        <time>2019-02-03T09:44:38Z</time>
      </trkpt>
      <trkpt lat="43.48095" lon="5.28153">
        <ele>222</ele>
        <time>2019-02-03T09:44:53Z</time>
      </trkpt>
      <trkpt lat="43.48112" lon="5.28148">
        <ele>222.51</ele>
        <time>2019-02-03T09:45:08Z</time>
      </trkpt>
      <trkpt lat="43.48135" lon="5.28144">
        <ele>221.63</ele>
        <time>2019-02-03T09:45:25Z</time>
      </trkpt>
      <trkpt lat="43.48152" lon="5.28136">
        <ele>221.67</ele>
        <time>2019-02-03T09:45:39Z</time>
      </trkpt>
      <trkpt lat="43.4817" lon="5.28125">
        <ele>219.92</ele>
        <time>2019-02-03T09:45:53Z</time>
      </trkpt>
      <trkpt lat="43.48174" lon="5.2812">
        <ele>220.45</ele>
        <time>2019-02-03T09:45:57Z</time>
      </trkpt>
      <trkpt lat="43.48176" lon="5.28116">
        <ele>220.8</ele>
        <time>2019-02-03T09:46:00Z</time>
      </trkpt>
      <trkpt lat="43.4818" lon="5.28112">
        <ele>220.82</ele>
        <time>2019-02-03T09:46:04Z</time>
      </trkpt>
      <trkpt lat="43.48185" lon="5.28105">
        <ele>220.05</ele>
        <time>2019-02-03T09:46:09Z</time>
      </trkpt>
      <trkpt lat="43.48197" lon="5.28114">
        <ele>220.91</ele>
        <time>2019-02-03T09:46:21Z</time>
      </trkpt>
      <trkpt lat="43.48213" lon="5.28128">
        <ele>219.07</ele>
        <time>2019-02-03T09:46:37Z</time>
      </trkpt>
      <trkpt lat="43.48221" lon="5.28136">
        <ele>218.75</ele>
        <time>2019-02-03T09:46:57Z</time>
      </trkpt>
      <trkpt lat="43.48238" lon="5.28144">
        <ele>217.59</ele>
        <time>2019-02-03T09:47:12Z</time>
      </trkpt>
      <trkpt lat="43.4826" lon="5.28144">
        <ele>218.7</ele>
        <time>2019-02-03T09:47:28Z</time>
      </trkpt>
      <trkpt lat="43.48269" lon="5.28156">
        <ele>218.96</ele>
        <time>2019-02-03T09:47:37Z</time>
      </trkpt>
      <trkpt lat="43.48281" lon="5.28152">
        <ele>216.63</ele>
        <time>2019-02-03T09:47:47Z</time>
      </trkpt>
      <trkpt lat="43.483" lon="5.28141">
        <ele>216.84</ele>
        <time>2019-02-03T09:48:02Z</time>
      </trkpt>
      <trkpt lat="43.4832" lon="5.28128">
        <ele>216.49</ele>
        <time>2019-02-03T09:48:18Z</time>
      </trkpt>
      <trkpt lat="43.48335" lon="5.28119">
        <ele>216.77</ele>
        <time>2019-02-03T09:48:30Z</time>
      </trkpt>
      <trkpt lat="43.4834" lon="5.28115">
        <ele>217.33</ele>
        <time>2019-02-03T09:48:34Z</time>
      </trkpt>
      <trkpt lat="43.48363" lon="5.28098">
        <ele>218.88</ele>
        <time>2019-02-03T09:48:52Z</time>
      </trkpt>
      <trkpt lat="43.48381" lon="5.28083">
        <ele>217.5</ele>
        <time>2019-02-03T09:49:07Z</time>
      </trkpt>
      <trkpt lat="43.48398" lon="5.28065">
        <ele>218.29</ele>
        <time>2019-02-03T09:49:22Z</time>
      </trkpt>
      <trkpt lat="43.48408" lon="5.28048">
        <ele>218.83</ele>
        <time>2019-02-03T09:49:33Z</time>
      </trkpt>
      <trkpt lat="43.48413" lon="5.2804">
        <ele>217.53</ele>
        <time>2019-02-03T09:49:38Z</time>
      </trkpt>
      <trkpt lat="43.4842" lon="5.28028">
        <ele>218.65</ele>
        <time>2019-02-03T09:49:46Z</time>
      </trkpt>
      <trkpt lat="43.48431" lon="5.28014">
        <ele>219.81</ele>
        <time>2019-02-03T09:49:57Z</time>
      </trkpt>
      <trkpt lat="43.48439" lon="5.28001">
        <ele>221.55</ele>
        <time>2019-02-03T09:50:08Z</time>
      </trkpt>
      <trkpt lat="43.4845" lon="5.27987">
        <ele>220.01</ele>
        <time>2019-02-03T09:50:21Z</time>
      </trkpt>
      <trkpt lat="43.48465" lon="5.27974">
        <ele>218.97</ele>
        <time>2019-02-03T09:50:35Z</time>
      </trkpt>
      <trkpt lat="43.48479" lon="5.27961">
        <ele>221.83</ele>
        <time>2019-02-03T09:50:47Z</time>
      </trkpt>
      <trkpt lat="43.48497" lon="5.27948">
        <ele>222.98</ele>
        <time>2019-02-03T09:51:02Z</time>
      </trkpt>
      <trkpt lat="43.48514" lon="5.27933">
        <ele>223.81</ele>
        <time>2019-02-03T09:51:15Z</time>
      </trkpt>
      <trkpt lat="43.48517" lon="5.2793">
        <ele>225.23</ele>
        <time>2019-02-03T09:51:21Z</time>
      </trkpt>
      <trkpt lat="43.48527" lon="5.27907">
        <ele>225.13</ele>
        <time>2019-02-03T09:51:37Z</time>
      </trkpt>
      <trkpt lat="43.48525" lon="5.27902">
        <ele>226.26</ele>
        <time>2019-02-03T09:51:41Z</time>
      </trkpt>
      <trkpt lat="43.48518" lon="5.27896">
        <ele>227.18</ele>
        <time>2019-02-03T09:51:54Z</time>
      </trkpt>
      <trkpt lat="43.48497" lon="5.27895">
        <ele>226.06</ele>
        <time>2019-02-03T09:52:09Z</time>
      </trkpt>
      <trkpt lat="43.48487" lon="5.27889">
        <ele>225.04</ele>
        <time>2019-02-03T09:52:21Z</time>
      </trkpt>
      <trkpt lat="43.48484" lon="5.27884">
        <ele>224.73</ele>
        <time>2019-02-03T09:52:25Z</time>
      </trkpt>
      <trkpt lat="43.48483" lon="5.27872">
        <ele>224.49</ele>
        <time>2019-02-03T09:52:33Z</time>
      </trkpt>
      <trkpt lat="43.48495" lon="5.27852">
        <ele>225.05</ele>
        <time>2019-02-03T09:52:49Z</time>
      </trkpt>
      <trkpt lat="43.48505" lon="5.27833">
        <ele>224.73</ele>
        <time>2019-02-03T09:53:02Z</time>
      </trkpt>
      <trkpt lat="43.48518" lon="5.27808">
        <ele>226.95</ele>
        <time>2019-02-03T09:53:19Z</time>
      </trkpt>
      <trkpt lat="43.48519" lon="5.27807">
        <ele>227.25</ele>
        <time>2019-02-03T09:53:20Z</time>
      </trkpt>
      <trkpt lat="43.48533" lon="5.27787">
        <ele>228.84</ele>
        <time>2019-02-03T09:53:36Z</time>
      </trkpt>
      <trkpt lat="43.48542" lon="5.27774">
        <ele>228.41</ele>
        <time>2019-02-03T09:53:46Z</time>
      </trkpt>
      <trkpt lat="43.48544" lon="5.27772">
        <ele>228.7</ele>
        <time>2019-02-03T09:53:48Z</time>
      </trkpt>
      <trkpt lat="43.48555" lon="5.27753">
        <ele>229.81</ele>
        <time>2019-02-03T09:54:03Z</time>
      </trkpt>
      <trkpt lat="43.48549" lon="5.27739">
        <ele>229.84</ele>
        <time>2019-02-03T09:54:15Z</time>
      </trkpt>
      <trkpt lat="43.48541" lon="5.27734">
        <ele>229.89</ele>
        <time>2019-02-03T09:54:22Z</time>
      </trkpt>
      <trkpt lat="43.4852" lon="5.27718">
        <ele>229.74</ele>
        <time>2019-02-03T09:54:40Z</time>
      </trkpt>
      <trkpt lat="43.48515" lon="5.27714">
        <ele>230.47</ele>
        <time>2019-02-03T09:54:44Z</time>
      </trkpt>
      <trkpt lat="43.4851" lon="5.27712">
        <ele>230.67</ele>
        <time>2019-02-03T09:54:49Z</time>
      </trkpt>
      <trkpt lat="43.485" lon="5.2771">
        <ele>230.29</ele>
        <time>2019-02-03T09:55:02Z</time>
      </trkpt>
      <trkpt lat="43.48495" lon="5.2771">
        <ele>230.31</ele>
        <time>2019-02-03T09:55:07Z</time>
      </trkpt>
      <trkpt lat="43.48485" lon="5.27712">
        <ele>229.92</ele>
        <time>2019-02-03T09:55:15Z</time>
      </trkpt>
      <trkpt lat="43.48471" lon="5.27695">
        <ele>228.49</ele>
        <time>2019-02-03T09:55:32Z</time>
      </trkpt>
      <trkpt lat="43.48466" lon="5.27679">
        <ele>228.39</ele>
        <time>2019-02-03T09:55:43Z</time>
      </trkpt>
      <trkpt lat="43.4847" lon="5.27659">
        <ele>226.66</ele>
        <time>2019-02-03T09:55:56Z</time>
      </trkpt>
      <trkpt lat="43.48472" lon="5.27652">
        <ele>225.41</ele>
        <time>2019-02-03T09:56:01Z</time>
      </trkpt>
      <trkpt lat="43.48484" lon="5.27637">
        <ele>228.27</ele>
        <time>2019-02-03T09:56:15Z</time>
      </trkpt>
      <trkpt lat="43.48498" lon="5.27619">
        <ele>229.37</ele>
        <time>2019-02-03T09:56:30Z</time>
      </trkpt>
      <trkpt lat="43.48506" lon="5.2761">
        <ele>230.66</ele>
        <time>2019-02-03T09:56:41Z</time>
      </trkpt>
      <trkpt lat="43.4852" lon="5.27591">
        <ele>231.63</ele>
        <time>2019-02-03T09:56:56Z</time>
      </trkpt>
      <trkpt lat="43.4853" lon="5.27563">
        <ele>233.13</ele>
        <time>2019-02-03T09:57:12Z</time>
      </trkpt>
      <trkpt lat="43.48538" lon="5.27532">
        <ele>233.32</ele>
        <time>2019-02-03T09:57:29Z</time>
      </trkpt>
      <trkpt lat="43.48533" lon="5.27499">
        <ele>234.62</ele>
        <time>2019-02-03T09:57:45Z</time>
      </trkpt>
      <trkpt lat="43.48527" lon="5.27476">
        <ele>234.34</ele>
        <time>2019-02-03T09:58:00Z</time>
      </trkpt>
      <trkpt lat="43.48524" lon="5.27451">
        <ele>233.23</ele>
        <time>2019-02-03T09:58:15Z</time>
      </trkpt>
      <trkpt lat="43.48531" lon="5.27433">
        <ele>231.58</ele>
        <time>2019-02-03T09:58:28Z</time>
      </trkpt>
      <trkpt lat="43.48533" lon="5.27409">
        <ele>231.05</ele>
        <time>2019-02-03T09:58:43Z</time>
      </trkpt>
      <trkpt lat="43.4852" lon="5.27389">
        <ele>233.91</ele>
        <time>2019-02-03T09:58:59Z</time>
      </trkpt>
      <trkpt lat="43.48516" lon="5.27386">
        <ele>233.85</ele>
        <time>2019-02-03T09:59:02Z</time>
      </trkpt>
      <trkpt lat="43.48511" lon="5.27382">
        <ele>233.98</ele>
        <time>2019-02-03T09:59:07Z</time>
      </trkpt>
      <trkpt lat="43.48489" lon="5.27381">
        <ele>234.01</ele>
        <time>2019-02-03T09:59:24Z</time>
      </trkpt>
      <trkpt lat="43.48468" lon="5.27379">
        <ele>232.05</ele>
        <time>2019-02-03T09:59:40Z</time>
      </trkpt>
      <trkpt lat="43.48457" lon="5.27381">
        <ele>230.77</ele>
        <time>2019-02-03T09:59:48Z</time>
      </trkpt>
      <trkpt lat="43.48449" lon="5.27387">
        <ele>230.51</ele>
        <time>2019-02-03T09:59:58Z</time>
      </trkpt>
      <trkpt lat="43.48446" lon="5.27389">
        <ele>229.89</ele>
        <time>2019-02-03T10:00:00Z</time>
      </trkpt>
      <trkpt lat="43.48438" lon="5.27396">
        <ele>230.87</ele>
        <time>2019-02-03T10:00:17Z</time>
      </trkpt>
      <trkpt lat="43.48429" lon="5.274">
        <ele>231.96</ele>
        <time>2019-02-03T10:00:33Z</time>
      </trkpt>
      <trkpt lat="43.48412" lon="5.27403">
        <ele>232.82</ele>
        <time>2019-02-03T10:00:49Z</time>
      </trkpt>
      <trkpt lat="43.48391" lon="5.27409">
        <ele>233.45</ele>
        <time>2019-02-03T10:01:05Z</time>
      </trkpt>
      <trkpt lat="43.48366" lon="5.27418">
        <ele>234.9</ele>
        <time>2019-02-03T10:01:23Z</time>
      </trkpt>
      <trkpt lat="43.48347" lon="5.27427">
        <ele>232.8</ele>
        <time>2019-02-03T10:01:39Z</time>
      </trkpt>
      <trkpt lat="43.48327" lon="5.27438">
        <ele>232.79</ele>
        <time>2019-02-03T10:01:54Z</time>
      </trkpt>
      <trkpt lat="43.48307" lon="5.27451">
        <ele>233.5</ele>
        <time>2019-02-03T10:02:09Z</time>
      </trkpt>
      <trkpt lat="43.48285" lon="5.27465">
        <ele>232.95</ele>
        <time>2019-02-03T10:02:27Z</time>
      </trkpt>
      <trkpt lat="43.48269" lon="5.27482">
        <ele>232.23</ele>
        <time>2019-02-03T10:02:42Z</time>
      </trkpt>
      <trkpt lat="43.48248" lon="5.27499">
        <ele>231.06</ele>
        <time>2019-02-03T10:03:00Z</time>
      </trkpt>
      <trkpt lat="43.48228" lon="5.27512">
        <ele>230.26</ele>
        <time>2019-02-03T10:03:16Z</time>
      </trkpt>
      <trkpt lat="43.48207" lon="5.27524">
        <ele>228.88</ele>
        <time>2019-02-03T10:03:32Z</time>
      </trkpt>
      <trkpt lat="43.48187" lon="5.27516">
        <ele>228.1</ele>
        <time>2019-02-03T10:03:48Z</time>
      </trkpt>
      <trkpt lat="43.48186" lon="5.27515">
        <ele>228.07</ele>
        <time>2019-02-03T10:03:49Z</time>
      </trkpt>
      <trkpt lat="43.48187" lon="5.27507">
        <ele>228</ele>
        <time>2019-02-03T10:03:55Z</time>
      </trkpt>
      <trkpt lat="43.4819" lon="5.27502">
        <ele>227.99</ele>
        <time>2019-02-03T10:04:00Z</time>
      </trkpt>
      <trkpt lat="43.48193" lon="5.27498">
        <ele>228.36</ele>
        <time>2019-02-03T10:04:04Z</time>
      </trkpt>
      <trkpt lat="43.48209" lon="5.27477">
        <ele>229.49</ele>
        <time>2019-02-03T10:04:22Z</time>
      </trkpt>
      <trkpt lat="43.48223" lon="5.2746">
        <ele>229.17</ele>
        <time>2019-02-03T10:04:36Z</time>
      </trkpt>
      <trkpt lat="43.48235" lon="5.27447">
        <ele>229.21</ele>
        <time>2019-02-03T10:04:48Z</time>
      </trkpt>
      <trkpt lat="43.48251" lon="5.2743">
        <ele>229.87</ele>
        <time>2019-02-03T10:05:03Z</time>
      </trkpt>
      <trkpt lat="43.48252" lon="5.27403">
        <ele>231.83</ele>
        <time>2019-02-03T10:05:18Z</time>
      </trkpt>
      <trkpt lat="43.48243" lon="5.27376">
        <ele>231.36</ele>
        <time>2019-02-03T10:05:34Z</time>
      </trkpt>
      <trkpt lat="43.48228" lon="5.27357">
        <ele>232.25</ele>
        <time>2019-02-03T10:05:51Z</time>
      </trkpt>
      <trkpt lat="43.48204" lon="5.27343">
        <ele>231.72</ele>
        <time>2019-02-03T10:06:09Z</time>
      </trkpt>
      <trkpt lat="43.48178" lon="5.27337">
        <ele>232.02</ele>
        <time>2019-02-03T10:06:27Z</time>
      </trkpt>
      <trkpt lat="43.48153" lon="5.27334">
        <ele>231.57</ele>
        <time>2019-02-03T10:06:45Z</time>
      </trkpt>
      <trkpt lat="43.48132" lon="5.27332">
        <ele>230.34</ele>
        <time>2019-02-03T10:07:00Z</time>
      </trkpt>
      <trkpt lat="43.48115" lon="5.27329">
        <ele>229.15</ele>
        <time>2019-02-03T10:07:12Z</time>
      </trkpt>
      <trkpt lat="43.48092" lon="5.27324">
        <ele>228.43</ele>
        <time>2019-02-03T10:07:29Z</time>
      </trkpt>
      <trkpt lat="43.48061" lon="5.27318">
        <ele>226.28</ele>
        <time>2019-02-03T10:07:49Z</time>
      </trkpt>
      <trkpt lat="43.48054" lon="5.27315">
        <ele>226.65</ele>
        <time>2019-02-03T10:07:55Z</time>
      </trkpt>
      <trkpt lat="43.48056" lon="5.27298">
        <ele>228.89</ele>
        <time>2019-02-03T10:08:07Z</time>
      </trkpt>
      <trkpt lat="43.4806" lon="5.27283">
        <ele>226.95</ele>
        <time>2019-02-03T10:08:17Z</time>
      </trkpt>
      <trkpt lat="43.48065" lon="5.2727">
        <ele>226.76</ele>
        <time>2019-02-03T10:08:25Z</time>
      </trkpt>
      <trkpt lat="43.48075" lon="5.27249">
        <ele>228.17</ele>
        <time>2019-02-03T10:08:40Z</time>
      </trkpt>
      <trkpt lat="43.48085" lon="5.27234">
        <ele>230.21</ele>
        <time>2019-02-03T10:08:56Z</time>
      </trkpt>
      <trkpt lat="43.48097" lon="5.27219">
        <ele>233.22</ele>
        <time>2019-02-03T10:09:14Z</time>
      </trkpt>
      <trkpt lat="43.48103" lon="5.27214">
        <ele>234.06</ele>
        <time>2019-02-03T10:09:21Z</time>
      </trkpt>
      <trkpt lat="43.48118" lon="5.27206">
        <ele>235.3</ele>
        <time>2019-02-03T10:09:35Z</time>
      </trkpt>
      <trkpt lat="43.48134" lon="5.27196">
        <ele>237.19</ele>
        <time>2019-02-03T10:09:49Z</time>
      </trkpt>
      <trkpt lat="43.48137" lon="5.27196">
        <ele>237.62</ele>
        <time>2019-02-03T10:09:52Z</time>
      </trkpt>
      <trkpt lat="43.48141" lon="5.27195">
        <ele>238.31</ele>
        <time>2019-02-03T10:09:56Z</time>
      </trkpt>
      <trkpt lat="43.48158" lon="5.27185">
        <ele>240.49</ele>
        <time>2019-02-03T10:10:11Z</time>
      </trkpt>
      <trkpt lat="43.48172" lon="5.2717">
        <ele>238.31</ele>
        <time>2019-02-03T10:10:25Z</time>
      </trkpt>
      <trkpt lat="43.48184" lon="5.27159">
        <ele>237.96</ele>
        <time>2019-02-03T10:10:38Z</time>
      </trkpt>
      <trkpt lat="43.482" lon="5.27146">
        <ele>238.14</ele>
        <time>2019-02-03T10:10:51Z</time>
      </trkpt>
      <trkpt lat="43.48216" lon="5.27136">
        <ele>239.03</ele>
        <time>2019-02-03T10:11:05Z</time>
      </trkpt>
      <trkpt lat="43.48232" lon="5.27125">
        <ele>240.25</ele>
        <time>2019-02-03T10:11:18Z</time>
      </trkpt>
      <trkpt lat="43.48236" lon="5.27123">
        <ele>240.23</ele>
        <time>2019-02-03T10:11:21Z</time>
      </trkpt>
      <trkpt lat="43.48258" lon="5.27128">
        <ele>241.45</ele>
        <time>2019-02-03T10:11:36Z</time>
      </trkpt>
      <trkpt lat="43.48265" lon="5.2713">
        <ele>241.49</ele>
        <time>2019-02-03T10:11:41Z</time>
      </trkpt>
      <trkpt lat="43.48282" lon="5.27136">
        <ele>241.49</ele>
        <time>2019-02-03T10:11:55Z</time>
      </trkpt>
      <trkpt lat="43.48286" lon="5.27133">
        <ele>241.27</ele>
        <time>2019-02-03T10:12:00Z</time>
      </trkpt>
      <trkpt lat="43.48305" lon="5.2712">
        <ele>242.88</ele>
        <time>2019-02-03T10:12:16Z</time>
      </trkpt>
      <trkpt lat="43.48317" lon="5.27112">
        <ele>242.12</ele>
        <time>2019-02-03T10:12:25Z</time>
      </trkpt>
      <trkpt lat="43.48334" lon="5.27105">
        <ele>243.19</ele>
        <time>2019-02-03T10:12:40Z</time>
      </trkpt>
      <trkpt lat="43.48346" lon="5.27102">
        <ele>243.83</ele>
        <time>2019-02-03T10:12:50Z</time>
      </trkpt>
      <trkpt lat="43.48365" lon="5.27104">
        <ele>244.74</ele>
        <time>2019-02-03T10:13:04Z</time>
      </trkpt>
      <trkpt lat="43.48386" lon="5.27108">
        <ele>245.6</ele>
        <time>2019-02-03T10:13:18Z</time>
      </trkpt>
      <trkpt lat="43.48408" lon="5.27108">
        <ele>244.88</ele>
        <time>2019-02-03T10:13:33Z</time>
      </trkpt>
      <trkpt lat="43.48429" lon="5.2711">
        <ele>245.36</ele>
        <time>2019-02-03T10:13:48Z</time>
      </trkpt>
      <trkpt lat="43.48457" lon="5.27108">
        <ele>246.34</ele>
        <time>2019-02-03T10:14:03Z</time>
      </trkpt>
      <trkpt lat="43.48482" lon="5.27119">
        <ele>245.44</ele>
        <time>2019-02-03T10:14:19Z</time>
      </trkpt>
      <trkpt lat="43.48501" lon="5.27133">
        <ele>244.86</ele>
        <time>2019-02-03T10:14:34Z</time>
      </trkpt>
      <trkpt lat="43.4852" lon="5.27148">
        <ele>242.89</ele>
        <time>2019-02-03T10:14:50Z</time>
      </trkpt>
      <trkpt lat="43.48539" lon="5.27157">
        <ele>242.01</ele>
        <time>2019-02-03T10:15:04Z</time>
      </trkpt>
      <trkpt lat="43.48564" lon="5.27163">
        <ele>241.73</ele>
        <time>2019-02-03T10:15:21Z</time>
      </trkpt>
      <trkpt lat="43.48587" lon="5.27177">
        <ele>240.99</ele>
        <time>2019-02-03T10:15:37Z</time>
      </trkpt>
      <trkpt lat="43.48597" lon="5.27183">
        <ele>241.4</ele>
        <time>2019-02-03T10:15:44Z</time>
      </trkpt>
      <trkpt lat="43.48613" lon="5.272">
        <ele>240.35</ele>
        <time>2019-02-03T10:16:00Z</time>
      </trkpt>
      <trkpt lat="43.48632" lon="5.27215">
        <ele>240.21</ele>
        <time>2019-02-03T10:16:15Z</time>
      </trkpt>
      <trkpt lat="43.48639" lon="5.2722">
        <ele>240.04</ele>
        <time>2019-02-03T10:16:22Z</time>
      </trkpt>
      <trkpt lat="43.48652" lon="5.27224">
        <ele>238.56</ele>
        <time>2019-02-03T10:16:32Z</time>
      </trkpt>
      <trkpt lat="43.48658" lon="5.27223">
        <ele>237.96</ele>
        <time>2019-02-03T10:16:36Z</time>
      </trkpt>
      <trkpt lat="43.48679" lon="5.27228">
        <ele>238.33</ele>
        <time>2019-02-03T10:16:53Z</time>
      </trkpt>
      <trkpt lat="43.4869" lon="5.27227">
        <ele>238.41</ele>
        <time>2019-02-03T10:17:03Z</time>
      </trkpt>
      <trkpt lat="43.48693" lon="5.27227">
        <ele>238.61</ele>
        <time>2019-02-03T10:17:05Z</time>
      </trkpt>
      <trkpt lat="43.48719" lon="5.27221">
        <ele>239.96</ele>
        <time>2019-02-03T10:17:22Z</time>
      </trkpt>
      <trkpt lat="43.48742" lon="5.27211">
        <ele>241.29</ele>
        <time>2019-02-03T10:17:40Z</time>
      </trkpt>
      <trkpt lat="43.48748" lon="5.27209">
        <ele>242.61</ele>
        <time>2019-02-03T10:17:46Z</time>
      </trkpt>
      <trkpt lat="43.4876" lon="5.27204">
        <ele>241.58</ele>
        <time>2019-02-03T10:17:57Z</time>
      </trkpt>
      <trkpt lat="43.48767" lon="5.27202">
        <ele>242.31</ele>
        <time>2019-02-03T10:18:03Z</time>
      </trkpt>
      <trkpt lat="43.48786" lon="5.27195">
        <ele>242.12</ele>
        <time>2019-02-03T10:18:19Z</time>
      </trkpt>
      <trkpt lat="43.48806" lon="5.2719">
        <ele>242.04</ele>
        <time>2019-02-03T10:18:34Z</time>
      </trkpt>
      <trkpt lat="43.48822" lon="5.27185">
        <ele>243.19</ele>
        <time>2019-02-03T10:18:47Z</time>
      </trkpt>
      <trkpt lat="43.48839" lon="5.27169">
        <ele>243.23</ele>
        <time>2019-02-03T10:19:02Z</time>
      </trkpt>
      <trkpt lat="43.48861" lon="5.27151">
        <ele>243.21</ele>
        <time>2019-02-03T10:19:19Z</time>
      </trkpt>
      <trkpt lat="43.4888" lon="5.27146">
        <ele>244.2</ele>
        <time>2019-02-03T10:19:34Z</time>
      </trkpt>
      <trkpt lat="43.48882" lon="5.27145">
        <ele>244.59</ele>
        <time>2019-02-03T10:19:36Z</time>
      </trkpt>
      <trkpt lat="43.48888" lon="5.27146">
        <ele>244.97</ele>
        <time>2019-02-03T10:19:40Z</time>
      </trkpt>
      <trkpt lat="43.48914" lon="5.27147">
        <ele>244.84</ele>
        <time>2019-02-03T10:19:58Z</time>
      </trkpt>
      <trkpt lat="43.48935" lon="5.27154">
        <ele>245.2</ele>
        <time>2019-02-03T10:20:15Z</time>
      </trkpt>
      <trkpt lat="43.48961" lon="5.27159">
        <ele>243.61</ele>
        <time>2019-02-03T10:20:33Z</time>
      </trkpt>
      <trkpt lat="43.48987" lon="5.2716">
        <ele>243.1</ele>
        <time>2019-02-03T10:20:49Z</time>
      </trkpt>
      <trkpt lat="43.4901" lon="5.27157">
        <ele>243.82</ele>
        <time>2019-02-03T10:21:06Z</time>
      </trkpt>
      <trkpt lat="43.49024" lon="5.27149">
        <ele>243.64</ele>
        <time>2019-02-03T10:21:17Z</time>
      </trkpt>
      <trkpt lat="43.4903" lon="5.27146">
        <ele>243.53</ele>
        <time>2019-02-03T10:21:21Z</time>
      </trkpt>
      <trkpt lat="43.49051" lon="5.27137">
        <ele>242.94</ele>
        <time>2019-02-03T10:21:38Z</time>
      </trkpt>
      <trkpt lat="43.49076" lon="5.27129">
        <ele>241.56</ele>
        <time>2019-02-03T10:21:55Z</time>
      </trkpt>
      <trkpt lat="43.49089" lon="5.27119">
        <ele>242.16</ele>
        <time>2019-02-03T10:22:08Z</time>
      </trkpt>
      <trkpt lat="43.49108" lon="5.27109">
        <ele>242.64</ele>
        <time>2019-02-03T10:22:22Z</time>
      </trkpt>
      <trkpt lat="43.49128" lon="5.27102">
        <ele>243.62</ele>
        <time>2019-02-03T10:22:38Z</time>
      </trkpt>
      <trkpt lat="43.49149" lon="5.27095">
        <ele>244.52</ele>
        <time>2019-02-03T10:22:54Z</time>
      </trkpt>
      <trkpt lat="43.49169" lon="5.27088">
        <ele>245.02</ele>
        <time>2019-02-03T10:23:09Z</time>
      </trkpt>
      <trkpt lat="43.49191" lon="5.27085">
        <ele>246.22</ele>
        <time>2019-02-03T10:23:24Z</time>
      </trkpt>
      <trkpt lat="43.49214" lon="5.27082">
        <ele>246.37</ele>
        <time>2019-02-03T10:23:40Z</time>
      </trkpt>
      <trkpt lat="43.49236" lon="5.27076">
        <ele>246.64</ele>
        <time>2019-02-03T10:23:56Z</time>
      </trkpt>
      <trkpt lat="43.49259" lon="5.27069">
        <ele>246.33</ele>
        <time>2019-02-03T10:24:12Z</time>
      </trkpt>
      <trkpt lat="43.4928" lon="5.27064">
        <ele>245.98</ele>
        <time>2019-02-03T10:24:27Z</time>
      </trkpt>
      <trkpt lat="43.493" lon="5.2706">
        <ele>246.75</ele>
        <time>2019-02-03T10:24:41Z</time>
      </trkpt>
      <trkpt lat="43.49324" lon="5.27054">
        <ele>247.11</ele>
        <time>2019-02-03T10:24:57Z</time>
      </trkpt>
      <trkpt lat="43.49347" lon="5.27048">
        <ele>245.61</ele>
        <time>2019-02-03T10:25:13Z</time>
      </trkpt>
      <trkpt lat="43.49372" lon="5.27044">
        <ele>247.94</ele>
        <time>2019-02-03T10:25:30Z</time>
      </trkpt>
      <trkpt lat="43.49396" lon="5.27038">
        <ele>247.63</ele>
        <time>2019-02-03T10:25:47Z</time>
      </trkpt>
      <trkpt lat="43.49419" lon="5.27031">
        <ele>249.5</ele>
        <time>2019-02-03T10:26:04Z</time>
      </trkpt>
      <trkpt lat="43.49438" lon="5.27026">
        <ele>249.36</ele>
        <time>2019-02-03T10:26:18Z</time>
      </trkpt>
      <trkpt lat="43.49462" lon="5.27019">
        <ele>250.24</ele>
        <time>2019-02-03T10:26:34Z</time>
      </trkpt>
      <trkpt lat="43.49486" lon="5.27004">
        <ele>249.02</ele>
        <time>2019-02-03T10:26:52Z</time>
      </trkpt>
      <trkpt lat="43.49502" lon="5.26997">
        <ele>249.88</ele>
        <time>2019-02-03T10:27:05Z</time>
      </trkpt>
      <trkpt lat="43.49525" lon="5.26985">
        <ele>251.04</ele>
        <time>2019-02-03T10:27:23Z</time>
      </trkpt>
      <trkpt lat="43.49545" lon="5.26975">
        <ele>252.13</ele>
        <time>2019-02-03T10:27:38Z</time>
      </trkpt>
      <trkpt lat="43.49554" lon="5.26966">
        <ele>251.76</ele>
        <time>2019-02-03T10:27:54Z</time>
      </trkpt>
      <trkpt lat="43.49554" lon="5.26966">
        <ele>254.97</ele>
        <time>2019-02-03T10:27:57Z</time>
      </trkpt>
      <trkpt lat="43.49553" lon="5.2697">
        <ele>257.39</ele>
        <time>2019-02-03T10:28:04Z</time>
      </trkpt>
      <trkpt lat="43.4956" lon="5.27002">
        <ele>256.17</ele>
        <time>2019-02-03T10:28:20Z</time>
      </trkpt>
      <trkpt lat="43.49573" lon="5.2701">
        <ele>256.23</ele>
        <time>2019-02-03T10:28:24Z</time>
      </trkpt>
      <trkpt lat="43.49663" lon="5.27029">
        <ele>256.97</ele>
        <time>2019-02-03T10:38:09Z</time>
      </trkpt>
      <trkpt lat="43.49724" lon="5.27028">
        <ele>257</ele>
        <time>2019-02-03T10:38:10Z</time>
      </trkpt>
      <trkpt lat="43.49729" lon="5.2703">
        <ele>265.21</ele>
        <time>2019-02-03T10:48:32Z</time>
      </trkpt>
      <trkpt lat="43.4975" lon="5.27044">
        <ele>265.21</ele>
        <time>2019-02-03T10:48:33Z</time>
      </trkpt>
      <trkpt lat="43.49765" lon="5.27054">
        <ele>265.46</ele>
        <time>2019-02-03T10:48:47Z</time>
      </trkpt>
      <trkpt lat="43.49774" lon="5.27067">
        <ele>265.87</ele>
        <time>2019-02-03T10:49:08Z</time>
      </trkpt>
      <trkpt lat="43.49778" lon="5.27098">
        <ele>265.8</ele>
        <time>2019-02-03T10:49:26Z</time>
      </trkpt>
      <trkpt lat="43.49773" lon="5.27126">
        <ele>264.87</ele>
        <time>2019-02-03T10:49:43Z</time>
      </trkpt>
      <trkpt lat="43.49772" lon="5.27132">
        <ele>264.65</ele>
        <time>2019-02-03T10:49:46Z</time>
      </trkpt>
      <trkpt lat="43.4977" lon="5.27139">
        <ele>264.33</ele>
        <time>2019-02-03T10:49:50Z</time>
      </trkpt>
      <trkpt lat="43.49765" lon="5.27172">
        <ele>262.94</ele>
        <time>2019-02-03T10:50:06Z</time>
      </trkpt>
      <trkpt lat="43.49776" lon="5.27204">
        <ele>263.02</ele>
        <time>2019-02-03T10:50:22Z</time>
      </trkpt>
      <trkpt lat="43.49788" lon="5.27235">
        <ele>262.63</ele>
        <time>2019-02-03T10:50:38Z</time>
      </trkpt>
      <trkpt lat="43.49798" lon="5.27259">
        <ele>262.32</ele>
        <time>2019-02-03T10:50:52Z</time>
      </trkpt>
      <trkpt lat="43.49809" lon="5.27286">
        <ele>263.11</ele>
        <time>2019-02-03T10:51:08Z</time>
      </trkpt>
      <trkpt lat="43.49822" lon="5.27314">
        <ele>262.71</ele>
        <time>2019-02-03T10:51:24Z</time>
      </trkpt>
      <trkpt lat="43.49836" lon="5.27342">
        <ele>264.08</ele>
        <time>2019-02-03T10:51:40Z</time>
      </trkpt>
      <trkpt lat="43.49847" lon="5.27368">
        <ele>263.34</ele>
        <time>2019-02-03T10:51:54Z</time>
      </trkpt>
      <trkpt lat="43.49861" lon="5.27401">
        <ele>262.1</ele>
        <time>2019-02-03T10:52:11Z</time>
      </trkpt>
      <trkpt lat="43.49875" lon="5.27426">
        <ele>260.99</ele>
        <time>2019-02-03T10:52:25Z</time>
      </trkpt>
      <trkpt lat="43.49884" lon="5.27446">
        <ele>259.59</ele>
        <time>2019-02-03T10:52:37Z</time>
      </trkpt>
      <trkpt lat="43.49892" lon="5.27467">
        <ele>259.9</ele>
        <time>2019-02-03T10:52:48Z</time>
      </trkpt>
      <trkpt lat="43.49897" lon="5.27482">
        <ele>260.7</ele>
        <time>2019-02-03T10:52:58Z</time>
      </trkpt>
      <trkpt lat="43.49912" lon="5.27506">
        <ele>260.56</ele>
        <time>2019-02-03T10:53:14Z</time>
      </trkpt>
      <trkpt lat="43.49927" lon="5.27539">
        <ele>260.43</ele>
        <time>2019-02-03T10:53:33Z</time>
      </trkpt>
      <trkpt lat="43.49936" lon="5.27568">
        <ele>259.41</ele>
        <time>2019-02-03T10:53:48Z</time>
      </trkpt>
      <trkpt lat="43.49944" lon="5.2759">
        <ele>258.82</ele>
        <time>2019-02-03T10:54:02Z</time>
      </trkpt>
      <trkpt lat="43.49951" lon="5.27609">
        <ele>258.11</ele>
        <time>2019-02-03T10:54:13Z</time>
      </trkpt>
      <trkpt lat="43.49963" lon="5.27641">
        <ele>258.39</ele>
        <time>2019-02-03T10:54:30Z</time>
      </trkpt>
      <trkpt lat="43.49976" lon="5.27673">
        <ele>257.47</ele>
        <time>2019-02-03T10:54:47Z</time>
      </trkpt>
      <trkpt lat="43.49987" lon="5.27698">
        <ele>255.65</ele>
        <time>2019-02-03T10:55:01Z</time>
      </trkpt>
      <trkpt lat="43.5" lon="5.27722">
        <ele>254.06</ele>
        <time>2019-02-03T10:55:15Z</time>
      </trkpt>
      <trkpt lat="43.50021" lon="5.27743">
        <ele>251.63</ele>
        <time>2019-02-03T10:55:31Z</time>
      </trkpt>
      <trkpt lat="43.50027" lon="5.27748">
        <ele>251.36</ele>
        <time>2019-02-03T10:55:36Z</time>
      </trkpt>
      <trkpt lat="43.50031" lon="5.27746">
        <ele>252.21</ele>
        <time>2019-02-03T10:55:40Z</time>
      </trkpt>
      <trkpt lat="43.50046" lon="5.27721">
        <ele>249.4</ele>
        <time>2019-02-03T10:55:57Z</time>
      </trkpt>
      <trkpt lat="43.50056" lon="5.27693">
        <ele>249.25</ele>
        <time>2019-02-03T10:56:13Z</time>
      </trkpt>
      <trkpt lat="43.5007" lon="5.27674">
        <ele>247.81</ele>
        <time>2019-02-03T10:56:28Z</time>
      </trkpt>
      <trkpt lat="43.50089" lon="5.27659">
        <ele>249.56</ele>
        <time>2019-02-03T10:56:45Z</time>
      </trkpt>
      <trkpt lat="43.50106" lon="5.27654">
        <ele>252.35</ele>
        <time>2019-02-03T10:57:00Z</time>
      </trkpt>
      <trkpt lat="43.50118" lon="5.27652">
        <ele>255.42</ele>
        <time>2019-02-03T10:57:11Z</time>
      </trkpt>
      <trkpt lat="43.5013" lon="5.27658">
        <ele>258.45</ele>
        <time>2019-02-03T10:57:21Z</time>
      </trkpt>
      <trkpt lat="43.50139" lon="5.27677">
        <ele>260.92</ele>
        <time>2019-02-03T10:57:34Z</time>
      </trkpt>
      <trkpt lat="43.50145" lon="5.27709">
        <ele>263.52</ele>
        <time>2019-02-03T10:57:53Z</time>
      </trkpt>
      <trkpt lat="43.50148" lon="5.27724">
        <ele>266.74</ele>
        <time>2019-02-03T10:58:01Z</time>
      </trkpt>
      <trkpt lat="43.50155" lon="5.27755">
        <ele>267.95</ele>
        <time>2019-02-03T10:58:20Z</time>
      </trkpt>
      <trkpt lat="43.50164" lon="5.27785">
        <ele>266.88</ele>
        <time>2019-02-03T10:58:37Z</time>
      </trkpt>
      <trkpt lat="43.50168" lon="5.27801">
        <ele>265.55</ele>
        <time>2019-02-03T10:58:49Z</time>
      </trkpt>
      <trkpt lat="43.50175" lon="5.27833">
        <ele>266.17</ele>
        <time>2019-02-03T10:59:07Z</time>
      </trkpt>
      <trkpt lat="43.50181" lon="5.27858">
        <ele>266.07</ele>
        <time>2019-02-03T10:59:21Z</time>
      </trkpt>
      <trkpt lat="43.50188" lon="5.2789">
        <ele>266.81</ele>
        <time>2019-02-03T10:59:38Z</time>
      </trkpt>
      <trkpt lat="43.50197" lon="5.27921">
        <ele>268.74</ele>
        <time>2019-02-03T10:59:55Z</time>
      </trkpt>
      <trkpt lat="43.50202" lon="5.2794">
        <ele>265.71</ele>
        <time>2019-02-03T11:00:05Z</time>
      </trkpt>
      <trkpt lat="43.50208" lon="5.27969">
        <ele>266.12</ele>
        <time>2019-02-03T11:00:21Z</time>
      </trkpt>
      <trkpt lat="43.50211" lon="5.27982">
        <ele>265.01</ele>
        <time>2019-02-03T11:00:29Z</time>
      </trkpt>
      <trkpt lat="43.5022" lon="5.28003">
        <ele>268.27</ele>
        <time>2019-02-03T11:00:44Z</time>
      </trkpt>
      <trkpt lat="43.50222" lon="5.28006">
        <ele>268.71</ele>
        <time>2019-02-03T11:00:46Z</time>
      </trkpt>
      <trkpt lat="43.50229" lon="5.28033">
        <ele>268.17</ele>
        <time>2019-02-03T11:01:02Z</time>
      </trkpt>
      <trkpt lat="43.50243" lon="5.28064">
        <ele>268.9</ele>
        <time>2019-02-03T11:01:20Z</time>
      </trkpt>
      <trkpt lat="43.50253" lon="5.28083">
        <ele>272.04</ele>
        <time>2019-02-03T11:01:33Z</time>
      </trkpt>
      <trkpt lat="43.50263" lon="5.28103">
        <ele>268.72</ele>
        <time>2019-02-03T11:01:46Z</time>
      </trkpt>
      <trkpt lat="43.50267" lon="5.28111">
        <ele>266.43</ele>
        <time>2019-02-03T11:01:51Z</time>
      </trkpt>
      <trkpt lat="43.50282" lon="5.2813">
        <ele>265.91</ele>
        <time>2019-02-03T11:02:06Z</time>
      </trkpt>
      <trkpt lat="43.50301" lon="5.28145">
        <ele>265.18</ele>
        <time>2019-02-03T11:02:22Z</time>
      </trkpt>
      <trkpt lat="43.50317" lon="5.28156">
        <ele>264.69</ele>
        <time>2019-02-03T11:02:36Z</time>
      </trkpt>
      <trkpt lat="43.50342" lon="5.28164">
        <ele>261.93</ele>
        <time>2019-02-03T11:02:53Z</time>
      </trkpt>
      <trkpt lat="43.50355" lon="5.28162">
        <ele>258.91</ele>
        <time>2019-02-03T11:03:03Z</time>
      </trkpt>
      <trkpt lat="43.50382" lon="5.28168">
        <ele>256.8</ele>
        <time>2019-02-03T11:03:20Z</time>
      </trkpt>
      <trkpt lat="43.50409" lon="5.28182">
        <ele>259.03</ele>
        <time>2019-02-03T11:03:38Z</time>
      </trkpt>
      <trkpt lat="43.50435" lon="5.28193">
        <ele>258.51</ele>
        <time>2019-02-03T11:03:57Z</time>
      </trkpt>
      <trkpt lat="43.50458" lon="5.28207">
        <ele>259.37</ele>
        <time>2019-02-03T11:04:16Z</time>
      </trkpt>
      <trkpt lat="43.50481" lon="5.28226">
        <ele>259.07</ele>
        <time>2019-02-03T11:04:34Z</time>
      </trkpt>
      <trkpt lat="43.50504" lon="5.28244">
        <ele>258.92</ele>
        <time>2019-02-03T11:04:52Z</time>
      </trkpt>
      <trkpt lat="43.50523" lon="5.28257">
        <ele>260.34</ele>
        <time>2019-02-03T11:05:07Z</time>
      </trkpt>
      <trkpt lat="43.50537" lon="5.28265">
        <ele>257.29</ele>
        <time>2019-02-03T11:05:19Z</time>
      </trkpt>
      <trkpt lat="43.50559" lon="5.28274">
        <ele>254.92</ele>
        <time>2019-02-03T11:05:35Z</time>
      </trkpt>
      <trkpt lat="43.50581" lon="5.28278">
        <ele>253.96</ele>
        <time>2019-02-03T11:05:50Z</time>
      </trkpt>
      <trkpt lat="43.50603" lon="5.28278">
        <ele>252.01</ele>
        <time>2019-02-03T11:06:07Z</time>
      </trkpt>
      <trkpt lat="43.50629" lon="5.2827">
        <ele>249.43</ele>
        <time>2019-02-03T11:06:25Z</time>
      </trkpt>
      <trkpt lat="43.5065" lon="5.28264">
        <ele>250.1</ele>
        <time>2019-02-03T11:06:40Z</time>
      </trkpt>
      <trkpt lat="43.50652" lon="5.28264">
        <ele>250.7</ele>
        <time>2019-02-03T11:06:46Z</time>
      </trkpt>
      <trkpt lat="43.50655" lon="5.28264">
        <ele>250.75</ele>
        <time>2019-02-03T11:06:48Z</time>
      </trkpt>
      <trkpt lat="43.50662" lon="5.28265">
        <ele>250.56</ele>
        <time>2019-02-03T11:07:03Z</time>
      </trkpt>
      <trkpt lat="43.50668" lon="5.28268">
        <ele>250.18</ele>
        <time>2019-02-03T11:07:16Z</time>
      </trkpt>
      <trkpt lat="43.5067" lon="5.28272">
        <ele>250.12</ele>
        <time>2019-02-03T11:07:19Z</time>
      </trkpt>
      <trkpt lat="43.50674" lon="5.28275">
        <ele>250.18</ele>
        <time>2019-02-03T11:07:23Z</time>
      </trkpt>
      <trkpt lat="43.50691" lon="5.283">
        <ele>248.93</ele>
        <time>2019-02-03T11:07:42Z</time>
      </trkpt>
      <trkpt lat="43.50706" lon="5.28317">
        <ele>248.13</ele>
        <time>2019-02-03T11:07:58Z</time>
      </trkpt>
      <trkpt lat="43.50724" lon="5.28316">
        <ele>248.73</ele>
        <time>2019-02-03T11:08:12Z</time>
      </trkpt>
      <trkpt lat="43.50737" lon="5.28312">
        <ele>251.95</ele>
        <time>2019-02-03T11:08:29Z</time>
      </trkpt>
      <trkpt lat="43.50741" lon="5.28305">
        <ele>252.76</ele>
        <time>2019-02-03T11:08:47Z</time>
      </trkpt>
      <trkpt lat="43.50746" lon="5.28296">
        <ele>252.71</ele>
        <time>2019-02-03T11:08:54Z</time>
      </trkpt>
      <trkpt lat="43.50752" lon="5.28282">
        <ele>252.85</ele>
        <time>2019-02-03T11:09:13Z</time>
      </trkpt>
      <trkpt lat="43.50753" lon="5.28282">
        <ele>252.92</ele>
        <time>2019-02-03T11:09:36Z</time>
      </trkpt>
      <trkpt lat="43.50751" lon="5.28281">
        <ele>252.88</ele>
        <time>2019-02-03T11:10:11Z</time>
      </trkpt>
      <trkpt lat="43.50752" lon="5.28282">
        <ele>254.17</ele>
        <time>2019-02-03T11:10:34Z</time>
      </trkpt>
      <trkpt lat="43.50752" lon="5.28281">
        <ele>253.3</ele>
        <time>2019-02-03T11:11:01Z</time>
      </trkpt>
      <trkpt lat="43.50753" lon="5.28283">
        <ele>252.32</ele>
        <time>2019-02-03T11:11:25Z</time>
      </trkpt>
      <trkpt lat="43.50755" lon="5.28283">
        <ele>252.07</ele>
        <time>2019-02-03T11:11:29Z</time>
      </trkpt>
      <trkpt lat="43.50761" lon="5.28265">
        <ele>252.86</ele>
        <time>2019-02-03T11:11:42Z</time>
      </trkpt>
      <trkpt lat="43.50764" lon="5.28262">
        <ele>252.95</ele>
        <time>2019-02-03T11:11:45Z</time>
      </trkpt>
      <trkpt lat="43.50776" lon="5.28273">
        <ele>254.99</ele>
        <time>2019-02-03T11:12:00Z</time>
      </trkpt>
      <trkpt lat="43.50787" lon="5.28294">
        <ele>255.99</ele>
        <time>2019-02-03T11:12:15Z</time>
      </trkpt>
      <trkpt lat="43.50799" lon="5.28317">
        <ele>255.73</ele>
        <time>2019-02-03T11:12:31Z</time>
      </trkpt>
      <trkpt lat="43.50806" lon="5.28336">
        <ele>256.36</ele>
        <time>2019-02-03T11:12:44Z</time>
      </trkpt>
      <trkpt lat="43.50813" lon="5.28354">
        <ele>256.94</ele>
        <time>2019-02-03T11:12:55Z</time>
      </trkpt>
      <trkpt lat="43.50825" lon="5.28378">
        <ele>259.36</ele>
        <time>2019-02-03T11:13:10Z</time>
      </trkpt>
      <trkpt lat="43.50841" lon="5.28403">
        <ele>260.59</ele>
        <time>2019-02-03T11:13:25Z</time>
      </trkpt>
      <trkpt lat="43.50858" lon="5.28427">
        <ele>259.61</ele>
        <time>2019-02-03T11:13:42Z</time>
      </trkpt>
      <trkpt lat="43.50865" lon="5.28436">
        <ele>259.6</ele>
        <time>2019-02-03T11:13:49Z</time>
      </trkpt>
      <trkpt lat="43.50869" lon="5.28441">
        <ele>258.91</ele>
        <time>2019-02-03T11:13:53Z</time>
      </trkpt>
      <trkpt lat="43.50888" lon="5.28458">
        <ele>256.66</ele>
        <time>2019-02-03T11:14:10Z</time>
      </trkpt>
      <trkpt lat="43.50892" lon="5.28465">
        <ele>253.59</ele>
        <time>2019-02-03T11:14:19Z</time>
      </trkpt>
      <trkpt lat="43.50893" lon="5.28469">
        <ele>251.66</ele>
        <time>2019-02-03T11:14:25Z</time>
      </trkpt>
      <trkpt lat="43.50896" lon="5.28478">
        <ele>250.6</ele>
        <time>2019-02-03T11:14:31Z</time>
      </trkpt>
      <trkpt lat="43.50902" lon="5.28482">
        <ele>250.32</ele>
        <time>2019-02-03T11:14:39Z</time>
      </trkpt>
      <trkpt lat="43.50903" lon="5.28475">
        <ele>249.44</ele>
        <time>2019-02-03T11:14:44Z</time>
      </trkpt>
      <trkpt lat="43.509" lon="5.28455">
        <ele>247.1</ele>
        <time>2019-02-03T11:14:59Z</time>
      </trkpt>
      <trkpt lat="43.50898" lon="5.28447">
        <ele>245.11</ele>
        <time>2019-02-03T11:15:05Z</time>
      </trkpt>
      <trkpt lat="43.50894" lon="5.28434">
        <ele>241.58</ele>
        <time>2019-02-03T11:15:13Z</time>
      </trkpt>
      <trkpt lat="43.5089" lon="5.28427">
        <ele>240.75</ele>
        <time>2019-02-03T11:15:18Z</time>
      </trkpt>
      <trkpt lat="43.50883" lon="5.28409">
        <ele>237.24</ele>
        <time>2019-02-03T11:15:28Z</time>
      </trkpt>
      <trkpt lat="43.50876" lon="5.28392">
        <ele>234.03</ele>
        <time>2019-02-03T11:15:38Z</time>
      </trkpt>
      <trkpt lat="43.50872" lon="5.28375">
        <ele>230.95</ele>
        <time>2019-02-03T11:15:48Z</time>
      </trkpt>
      <trkpt lat="43.50863" lon="5.28343">
        <ele>229.03</ele>
        <time>2019-02-03T11:16:04Z</time>
      </trkpt>
      <trkpt lat="43.50862" lon="5.28337">
        <ele>228.35</ele>
        <time>2019-02-03T11:16:07Z</time>
      </trkpt>
      <trkpt lat="43.50857" lon="5.28319">
        <ele>226.61</ele>
        <time>2019-02-03T11:16:16Z</time>
      </trkpt>
      <trkpt lat="43.50852" lon="5.28294">
        <ele>223.49</ele>
        <time>2019-02-03T11:16:29Z</time>
      </trkpt>
      <trkpt lat="43.5085" lon="5.28287">
        <ele>223.37</ele>
        <time>2019-02-03T11:16:33Z</time>
      </trkpt>
      <trkpt lat="43.5084" lon="5.28258">
        <ele>221.37</ele>
        <time>2019-02-03T11:16:48Z</time>
      </trkpt>
      <trkpt lat="43.50831" lon="5.28232">
        <ele>218.26</ele>
        <time>2019-02-03T11:17:04Z</time>
      </trkpt>
      <trkpt lat="43.50822" lon="5.28214">
        <ele>215.9</ele>
        <time>2019-02-03T11:17:16Z</time>
      </trkpt>
      <trkpt lat="43.5081" lon="5.28189">
        <ele>214.29</ele>
        <time>2019-02-03T11:17:30Z</time>
      </trkpt>
      <trkpt lat="43.50801" lon="5.28175">
        <ele>212.99</ele>
        <time>2019-02-03T11:17:40Z</time>
      </trkpt>
      <trkpt lat="43.50788" lon="5.28155">
        <ele>210.71</ele>
        <time>2019-02-03T11:17:55Z</time>
      </trkpt>
      <trkpt lat="43.50776" lon="5.28134">
        <ele>209.11</ele>
        <time>2019-02-03T11:18:09Z</time>
      </trkpt>
      <trkpt lat="43.50764" lon="5.28114">
        <ele>208.92</ele>
        <time>2019-02-03T11:18:23Z</time>
      </trkpt>
      <trkpt lat="43.50759" lon="5.28101">
        <ele>208.34</ele>
        <time>2019-02-03T11:18:32Z</time>
      </trkpt>
      <trkpt lat="43.50758" lon="5.28096">
        <ele>208.61</ele>
        <time>2019-02-03T11:18:35Z</time>
      </trkpt>
      <trkpt lat="43.50749" lon="5.28073">
        <ele>209.39</ele>
        <time>2019-02-03T11:18:49Z</time>
      </trkpt>
      <trkpt lat="43.50748" lon="5.28071">
        <ele>209.53</ele>
        <time>2019-02-03T11:18:50Z</time>
      </trkpt>
      <trkpt lat="43.50746" lon="5.28053">
        <ele>210.55</ele>
        <time>2019-02-03T11:19:01Z</time>
      </trkpt>
      <trkpt lat="43.50747" lon="5.28048">
        <ele>210.56</ele>
        <time>2019-02-03T11:19:04Z</time>
      </trkpt>
      <trkpt lat="43.50746" lon="5.28039">
        <ele>210.67</ele>
        <time>2019-02-03T11:19:08Z</time>
      </trkpt>
      <trkpt lat="43.50749" lon="5.28014">
        <ele>210.26</ele>
        <time>2019-02-03T11:19:21Z</time>
      </trkpt>
      <trkpt lat="43.50752" lon="5.2801">
        <ele>210.05</ele>
        <time>2019-02-03T11:19:24Z</time>
      </trkpt>
      <trkpt lat="43.50755" lon="5.28002">
        <ele>210.71</ele>
        <time>2019-02-03T11:19:29Z</time>
      </trkpt>
      <trkpt lat="43.50766" lon="5.27968">
        <ele>210.64</ele>
        <time>2019-02-03T11:19:47Z</time>
      </trkpt>
      <trkpt lat="43.50768" lon="5.27958">
        <ele>210.56</ele>
        <time>2019-02-03T11:19:53Z</time>
      </trkpt>
      <trkpt lat="43.50771" lon="5.27949">
        <ele>209.39</ele>
        <time>2019-02-03T11:19:59Z</time>
      </trkpt>
      <trkpt lat="43.50786" lon="5.27917">
        <ele>212.41</ele>
        <time>2019-02-03T11:20:19Z</time>
      </trkpt>
      <trkpt lat="43.50799" lon="5.27896">
        <ele>213.36</ele>
        <time>2019-02-03T11:20:33Z</time>
      </trkpt>
      <trkpt lat="43.50815" lon="5.27872">
        <ele>213.71</ele>
        <time>2019-02-03T11:20:50Z</time>
      </trkpt>
      <trkpt lat="43.50831" lon="5.27851">
        <ele>212.76</ele>
        <time>2019-02-03T11:21:05Z</time>
      </trkpt>
      <trkpt lat="43.50851" lon="5.27828">
        <ele>213.46</ele>
        <time>2019-02-03T11:21:23Z</time>
      </trkpt>
      <trkpt lat="43.50868" lon="5.27806">
        <ele>211.96</ele>
        <time>2019-02-03T11:21:39Z</time>
      </trkpt>
      <trkpt lat="43.50887" lon="5.27781">
        <ele>212.39</ele>
        <time>2019-02-03T11:21:57Z</time>
      </trkpt>
      <trkpt lat="43.50894" lon="5.27768">
        <ele>213</ele>
        <time>2019-02-03T11:22:09Z</time>
      </trkpt>
      <trkpt lat="43.50893" lon="5.27767">
        <ele>216.15</ele>
        <time>2019-02-03T11:22:19Z</time>
      </trkpt>
      <trkpt lat="43.50891" lon="5.27767">
        <ele>216.46</ele>
        <time>2019-02-03T11:22:20Z</time>
      </trkpt>
      <trkpt lat="43.50876" lon="5.27758">
        <ele>217.56</ele>
        <time>2019-02-03T11:22:33Z</time>
      </trkpt>
      <trkpt lat="43.5086" lon="5.27737">
        <ele>215.92</ele>
        <time>2019-02-03T11:22:48Z</time>
      </trkpt>
      <trkpt lat="43.50845" lon="5.27716">
        <ele>215.02</ele>
        <time>2019-02-03T11:23:03Z</time>
      </trkpt>
      <trkpt lat="43.50844" lon="5.27715">
        <ele>215.15</ele>
        <time>2019-02-03T11:23:04Z</time>
      </trkpt>
      <trkpt lat="43.50837" lon="5.27695">
        <ele>212.5</ele>
        <time>2019-02-03T11:23:17Z</time>
      </trkpt>
      <trkpt lat="43.50841" lon="5.27691">
        <ele>211.44</ele>
        <time>2019-02-03T11:23:21Z</time>
      </trkpt>
      <trkpt lat="43.50851" lon="5.27695">
        <ele>207.88</ele>
        <time>2019-02-03T11:23:30Z</time>
      </trkpt>
      <trkpt lat="43.50856" lon="5.27695">
        <ele>205.78</ele>
        <time>2019-02-03T11:23:35Z</time>
      </trkpt>
      <trkpt lat="43.50865" lon="5.2768">
        <ele>202.03</ele>
        <time>2019-02-03T11:23:46Z</time>
      </trkpt>
      <trkpt lat="43.50868" lon="5.27674">
        <ele>198.67</ele>
        <time>2019-02-03T11:23:50Z</time>
      </trkpt>
      <trkpt lat="43.50885" lon="5.27667">
        <ele>197.05</ele>
        <time>2019-02-03T11:24:04Z</time>
      </trkpt>
      <trkpt lat="43.50889" lon="5.27667">
        <ele>196.95</ele>
        <time>2019-02-03T11:24:07Z</time>
      </trkpt>
      <trkpt lat="43.50901" lon="5.27667">
        <ele>195.89</ele>
        <time>2019-02-03T11:24:16Z</time>
      </trkpt>
      <trkpt lat="43.50908" lon="5.27654">
        <ele>195.32</ele>
        <time>2019-02-03T11:24:27Z</time>
      </trkpt>
      <trkpt lat="43.50899" lon="5.27631">
        <ele>192.43</ele>
        <time>2019-02-03T11:24:43Z</time>
      </trkpt>
      <trkpt lat="43.50894" lon="5.2762">
        <ele>189.19</ele>
        <time>2019-02-03T11:24:51Z</time>
      </trkpt>
      <trkpt lat="43.50887" lon="5.27607">
        <ele>185.95</ele>
        <time>2019-02-03T11:24:59Z</time>
      </trkpt>
      <trkpt lat="43.50882" lon="5.27592">
        <ele>182.74</ele>
        <time>2019-02-03T11:25:07Z</time>
      </trkpt>
      <trkpt lat="43.50872" lon="5.27568">
        <ele>180.73</ele>
        <time>2019-02-03T11:25:19Z</time>
      </trkpt>
      <trkpt lat="43.50865" lon="5.27544">
        <ele>179.08</ele>
        <time>2019-02-03T11:25:33Z</time>
      </trkpt>
      <trkpt lat="43.50864" lon="5.27529">
        <ele>175.86</ele>
        <time>2019-02-03T11:25:41Z</time>
      </trkpt>
      <trkpt lat="43.50863" lon="5.27502">
        <ele>173.15</ele>
        <time>2019-02-03T11:25:55Z</time>
      </trkpt>
      <trkpt lat="43.50861" lon="5.27491">
        <ele>170.07</ele>
        <time>2019-02-03T11:26:02Z</time>
      </trkpt>
      <trkpt lat="43.50861" lon="5.2749">
        <ele>169.78</ele>
        <time>2019-02-03T11:26:03Z</time>
      </trkpt>
      <trkpt lat="43.50859" lon="5.27479">
        <ele>166.29</ele>
        <time>2019-02-03T11:26:12Z</time>
      </trkpt>
      <trkpt lat="43.50859" lon="5.27477">
        <ele>165.94</ele>
        <time>2019-02-03T11:26:13Z</time>
      </trkpt>
      <trkpt lat="43.50857" lon="5.27459">
        <ele>162.53</ele>
        <time>2019-02-03T11:26:24Z</time>
      </trkpt>
      <trkpt lat="43.50856" lon="5.27431">
        <ele>161.33</ele>
        <time>2019-02-03T11:26:38Z</time>
      </trkpt>
      <trkpt lat="43.50854" lon="5.27415">
        <ele>161.38</ele>
        <time>2019-02-03T11:26:46Z</time>
      </trkpt>
      <trkpt lat="43.50855" lon="5.27402">
        <ele>162.03</ele>
        <time>2019-02-03T11:26:53Z</time>
      </trkpt>
      <trkpt lat="43.50856" lon="5.27382">
        <ele>161.46</ele>
        <time>2019-02-03T11:27:04Z</time>
      </trkpt>
      <trkpt lat="43.50866" lon="5.27368">
        <ele>158.95</ele>
        <time>2019-02-03T11:27:15Z</time>
      </trkpt>
      <trkpt lat="43.50883" lon="5.27357">
        <ele>158.05</ele>
        <time>2019-02-03T11:27:29Z</time>
      </trkpt>
      <trkpt lat="43.50886" lon="5.27351">
        <ele>157.69</ele>
        <time>2019-02-03T11:27:33Z</time>
      </trkpt>
      <trkpt lat="43.50888" lon="5.27332">
        <ele>154.86</ele>
        <time>2019-02-03T11:27:44Z</time>
      </trkpt>
      <trkpt lat="43.50887" lon="5.27325">
        <ele>153.8</ele>
        <time>2019-02-03T11:27:48Z</time>
      </trkpt>
      <trkpt lat="43.50877" lon="5.27296">
        <ele>150.63</ele>
        <time>2019-02-03T11:28:06Z</time>
      </trkpt>
      <trkpt lat="43.50872" lon="5.27274">
        <ele>149.53</ele>
        <time>2019-02-03T11:28:21Z</time>
      </trkpt>
      <trkpt lat="43.50867" lon="5.27252">
        <ele>149.34</ele>
        <time>2019-02-03T11:28:37Z</time>
      </trkpt>
      <trkpt lat="43.50865" lon="5.27245">
        <ele>149.3</ele>
        <time>2019-02-03T11:28:51Z</time>
      </trkpt>
      <trkpt lat="43.5087" lon="5.27227">
        <ele>147.49</ele>
        <time>2019-02-03T11:29:03Z</time>
      </trkpt>
      <trkpt lat="43.50889" lon="5.27209">
        <ele>145.4</ele>
        <time>2019-02-03T11:29:19Z</time>
      </trkpt>
      <trkpt lat="43.50908" lon="5.27191">
        <ele>144.98</ele>
        <time>2019-02-03T11:29:35Z</time>
      </trkpt>
      <trkpt lat="43.50928" lon="5.27192">
        <ele>145.07</ele>
        <time>2019-02-03T11:29:48Z</time>
      </trkpt>
      <trkpt lat="43.50948" lon="5.27208">
        <ele>142.79</ele>
        <time>2019-02-03T11:30:04Z</time>
      </trkpt>
      <trkpt lat="43.50962" lon="5.2722">
        <ele>143.42</ele>
        <time>2019-02-03T11:30:18Z</time>
      </trkpt>
      <trkpt lat="43.50986" lon="5.27223">
        <ele>143.81</ele>
        <time>2019-02-03T11:30:36Z</time>
      </trkpt>
      <trkpt lat="43.51005" lon="5.27219">
        <ele>141.22</ele>
        <time>2019-02-03T11:30:49Z</time>
      </trkpt>
      <trkpt lat="43.51024" lon="5.27209">
        <ele>142.06</ele>
        <time>2019-02-03T11:31:04Z</time>
      </trkpt>
      <trkpt lat="43.51048" lon="5.27191">
        <ele>142.5</ele>
        <time>2019-02-03T11:31:21Z</time>
      </trkpt>
      <trkpt lat="43.51067" lon="5.2718">
        <ele>143.1</ele>
        <time>2019-02-03T11:31:35Z</time>
      </trkpt>
      <trkpt lat="43.51081" lon="5.27174">
        <ele>142.91</ele>
        <time>2019-02-03T11:31:47Z</time>
      </trkpt>
      <trkpt lat="43.51098" lon="5.27166">
        <ele>143.32</ele>
        <time>2019-02-03T11:32:00Z</time>
      </trkpt>
      <trkpt lat="43.51114" lon="5.2716">
        <ele>144.37</ele>
        <time>2019-02-03T11:32:12Z</time>
      </trkpt>
      <trkpt lat="43.5114" lon="5.27151">
        <ele>144.56</ele>
        <time>2019-02-03T11:32:27Z</time>
      </trkpt>
      <trkpt lat="43.51167" lon="5.27143">
        <ele>144.56</ele>
        <time>2019-02-03T11:32:46Z</time>
      </trkpt>
      <trkpt lat="43.51185" lon="5.27133">
        <ele>143.98</ele>
        <time>2019-02-03T11:33:00Z</time>
      </trkpt>
      <trkpt lat="43.51209" lon="5.27112">
        <ele>145.67</ele>
        <time>2019-02-03T11:33:20Z</time>
      </trkpt>
      <trkpt lat="43.51214" lon="5.27107">
        <ele>143.9</ele>
        <time>2019-02-03T11:33:24Z</time>
      </trkpt>
      <trkpt lat="43.5122" lon="5.27099">
        <ele>144.86</ele>
        <time>2019-02-03T11:33:30Z</time>
      </trkpt>
      <trkpt lat="43.51233" lon="5.27088">
        <ele>146.77</ele>
        <time>2019-02-03T11:33:39Z</time>
      </trkpt>
      <trkpt lat="43.51242" lon="5.27079">
        <ele>143.84</ele>
        <time>2019-02-03T11:33:47Z</time>
      </trkpt>
      <trkpt lat="43.51265" lon="5.27058">
        <ele>141.5</ele>
        <time>2019-02-03T11:34:04Z</time>
      </trkpt>
      <trkpt lat="43.51285" lon="5.27037">
        <ele>141.44</ele>
        <time>2019-02-03T11:34:20Z</time>
      </trkpt>
      <trkpt lat="43.51294" lon="5.27031">
        <ele>142.22</ele>
        <time>2019-02-03T11:34:26Z</time>
      </trkpt>
      <trkpt lat="43.51301" lon="5.27024">
        <ele>142.75</ele>
        <time>2019-02-03T11:34:32Z</time>
      </trkpt>
      <trkpt lat="43.51303" lon="5.27022">
        <ele>143.06</ele>
        <time>2019-02-03T11:34:34Z</time>
      </trkpt>
      <trkpt lat="43.51306" lon="5.27014">
        <ele>143.83</ele>
        <time>2019-02-03T11:34:39Z</time>
      </trkpt>
      <trkpt lat="43.51313" lon="5.26998">
        <ele>142.9</ele>
        <time>2019-02-03T11:34:48Z</time>
      </trkpt>
      <trkpt lat="43.51321" lon="5.26987">
        <ele>143.27</ele>
        <time>2019-02-03T11:34:56Z</time>
      </trkpt>
      <trkpt lat="43.51334" lon="5.2697">
        <ele>143.54</ele>
        <time>2019-02-03T11:35:09Z</time>
      </trkpt>
      <trkpt lat="43.51339" lon="5.26959">
        <ele>143.43</ele>
        <time>2019-02-03T11:35:15Z</time>
      </trkpt>
      <trkpt lat="43.51354" lon="5.2693">
        <ele>144.62</ele>
        <time>2019-02-03T11:35:32Z</time>
      </trkpt>
      <trkpt lat="43.51358" lon="5.26919">
        <ele>143.73</ele>
        <time>2019-02-03T11:35:39Z</time>
      </trkpt>
      <trkpt lat="43.51362" lon="5.26914">
        <ele>142.55</ele>
        <time>2019-02-03T11:35:45Z</time>
      </trkpt>
      <trkpt lat="43.51372" lon="5.26908">
        <ele>141.16</ele>
        <time>2019-02-03T11:35:52Z</time>
      </trkpt>
      <trkpt lat="43.51393" lon="5.26899">
        <ele>138.43</ele>
        <time>2019-02-03T11:36:05Z</time>
      </trkpt>
      <trkpt lat="43.51413" lon="5.26892">
        <ele>137.99</ele>
        <time>2019-02-03T11:36:17Z</time>
      </trkpt>
      <trkpt lat="43.51419" lon="5.26888">
        <ele>137.59</ele>
        <time>2019-02-03T11:36:21Z</time>
      </trkpt>
      <trkpt lat="43.51427" lon="5.26877">
        <ele>136.42</ele>
        <time>2019-02-03T11:36:30Z</time>
      </trkpt>
      <trkpt lat="43.51437" lon="5.26862">
        <ele>134.25</ele>
        <time>2019-02-03T11:36:39Z</time>
      </trkpt>
      <trkpt lat="43.51448" lon="5.26853">
        <ele>132.7</ele>
        <time>2019-02-03T11:36:47Z</time>
      </trkpt>
      <trkpt lat="43.51457" lon="5.26845">
        <ele>132.8</ele>
        <time>2019-02-03T11:36:55Z</time>
      </trkpt>
      <trkpt lat="43.51471" lon="5.26836">
        <ele>132.11</ele>
        <time>2019-02-03T11:37:07Z</time>
      </trkpt>
      <trkpt lat="43.51495" lon="5.26826">
        <ele>130.23</ele>
        <time>2019-02-03T11:37:24Z</time>
      </trkpt>
      <trkpt lat="43.51503" lon="5.26824">
        <ele>129.63</ele>
        <time>2019-02-03T11:37:28Z</time>
      </trkpt>
      <trkpt lat="43.51506" lon="5.26822">
        <ele>129.56</ele>
        <time>2019-02-03T11:37:30Z</time>
      </trkpt>
      <trkpt lat="43.51521" lon="5.26815">
        <ele>128.66</ele>
        <time>2019-02-03T11:37:39Z</time>
      </trkpt>
      <trkpt lat="43.51526" lon="5.26809">
        <ele>128.42</ele>
        <time>2019-02-03T11:37:43Z</time>
      </trkpt>
      <trkpt lat="43.51539" lon="5.26797">
        <ele>128.84</ele>
        <time>2019-02-03T11:37:53Z</time>
      </trkpt>
      <trkpt lat="43.51557" lon="5.26782">
        <ele>126.33</ele>
        <time>2019-02-03T11:38:07Z</time>
      </trkpt>
      <trkpt lat="43.51559" lon="5.26782">
        <ele>126.3</ele>
        <time>2019-02-03T11:38:08Z</time>
      </trkpt>
      <trkpt lat="43.51562" lon="5.2678">
        <ele>126.22</ele>
        <time>2019-02-03T11:38:10Z</time>
      </trkpt>
      <trkpt lat="43.51568" lon="5.26773">
        <ele>125.03</ele>
        <time>2019-02-03T11:38:15Z</time>
      </trkpt>
      <trkpt lat="43.51581" lon="5.26764">
        <ele>124.7</ele>
        <time>2019-02-03T11:38:26Z</time>
      </trkpt>
      <trkpt lat="43.51594" lon="5.26748">
        <ele>121.59</ele>
        <time>2019-02-03T11:38:40Z</time>
      </trkpt>
      <trkpt lat="43.51597" lon="5.26743">
        <ele>121.28</ele>
        <time>2019-02-03T11:39:01Z</time>
      </trkpt>
      <trkpt lat="43.51613" lon="5.26738">
        <ele>121.23</ele>
        <time>2019-02-03T11:39:14Z</time>
      </trkpt>
      <trkpt lat="43.51635" lon="5.26738">
        <ele>120.37</ele>
        <time>2019-02-03T11:39:31Z</time>
      </trkpt>
      <trkpt lat="43.51651" lon="5.26743">
        <ele>119.65</ele>
        <time>2019-02-03T11:39:44Z</time>
      </trkpt>
      <trkpt lat="43.51669" lon="5.26755">
        <ele>119.13</ele>
        <time>2019-02-03T11:39:59Z</time>
      </trkpt>
      <trkpt lat="43.51683" lon="5.2676">
        <ele>118.54</ele>
        <time>2019-02-03T11:40:11Z</time>
      </trkpt>
      <trkpt lat="43.51689" lon="5.26752">
        <ele>118.59</ele>
        <time>2019-02-03T11:40:17Z</time>
      </trkpt>
      <trkpt lat="43.51704" lon="5.26737">
        <ele>119.54</ele>
        <time>2019-02-03T11:40:30Z</time>
      </trkpt>
      <trkpt lat="43.5171" lon="5.26732">
        <ele>118.58</ele>
        <time>2019-02-03T11:40:35Z</time>
      </trkpt>
      <trkpt lat="43.51724" lon="5.26721">
        <ele>115.37</ele>
        <time>2019-02-03T11:40:48Z</time>
      </trkpt>
      <trkpt lat="43.51736" lon="5.26706">
        <ele>114.98</ele>
        <time>2019-02-03T11:41:00Z</time>
      </trkpt>
      <trkpt lat="43.51737" lon="5.26705">
        <ele>115.08</ele>
        <time>2019-02-03T11:41:01Z</time>
      </trkpt>
      <trkpt lat="43.51742" lon="5.26703">
        <ele>115.27</ele>
        <time>2019-02-03T11:41:04Z</time>
      </trkpt>
      <trkpt lat="43.51759" lon="5.26688">
        <ele>114.31</ele>
        <time>2019-02-03T11:41:16Z</time>
      </trkpt>
      <trkpt lat="43.51764" lon="5.26677">
        <ele>113.93</ele>
        <time>2019-02-03T11:41:21Z</time>
      </trkpt>
      <trkpt lat="43.51767" lon="5.26673">
        <ele>113.82</ele>
        <time>2019-02-03T11:41:24Z</time>
      </trkpt>
      <trkpt lat="43.51769" lon="5.26671">
        <ele>113.91</ele>
        <time>2019-02-03T11:41:26Z</time>
      </trkpt>
      <trkpt lat="43.51785" lon="5.26648">
        <ele>114.65</ele>
        <time>2019-02-03T11:41:40Z</time>
      </trkpt>
      <trkpt lat="43.518" lon="5.26634">
        <ele>112.68</ele>
        <time>2019-02-03T11:41:53Z</time>
      </trkpt>
      <trkpt lat="43.51802" lon="5.26633">
        <ele>112.31</ele>
        <time>2019-02-03T11:41:55Z</time>
      </trkpt>
      <trkpt lat="43.51804" lon="5.26631">
        <ele>111.93</ele>
        <time>2019-02-03T11:41:57Z</time>
      </trkpt>
      <trkpt lat="43.51819" lon="5.26614">
        <ele>110.54</ele>
        <time>2019-02-03T11:42:10Z</time>
      </trkpt>
      <trkpt lat="43.51839" lon="5.266">
        <ele>109.46</ele>
        <time>2019-02-03T11:42:25Z</time>
      </trkpt>
      <trkpt lat="43.51844" lon="5.26597">
        <ele>108.19</ele>
        <time>2019-02-03T11:42:29Z</time>
      </trkpt>
      <trkpt lat="43.51845" lon="5.26587">
        <ele>106.81</ele>
        <time>2019-02-03T11:42:35Z</time>
      </trkpt>
      <trkpt lat="43.5186" lon="5.26565">
        <ele>105.01</ele>
        <time>2019-02-03T11:42:48Z</time>
      </trkpt>
      <trkpt lat="43.51863" lon="5.26563">
        <ele>104.83</ele>
        <time>2019-02-03T11:42:51Z</time>
      </trkpt>
      <trkpt lat="43.51873" lon="5.26551">
        <ele>104.14</ele>
        <time>2019-02-03T11:42:59Z</time>
      </trkpt>
      <trkpt lat="43.51883" lon="5.26537">
        <ele>103.71</ele>
        <time>2019-02-03T11:43:08Z</time>
      </trkpt>
      <trkpt lat="43.51887" lon="5.26523">
        <ele>103.45</ele>
        <time>2019-02-03T11:43:15Z</time>
      </trkpt>
      <trkpt lat="43.51888" lon="5.26518">
        <ele>103.21</ele>
        <time>2019-02-03T11:43:18Z</time>
      </trkpt>
      <trkpt lat="43.51895" lon="5.26493">
        <ele>103.62</ele>
        <time>2019-02-03T11:43:31Z</time>
      </trkpt>
      <trkpt lat="43.51897" lon="5.26489">
        <ele>103.41</ele>
        <time>2019-02-03T11:43:33Z</time>
      </trkpt>
      <trkpt lat="43.51902" lon="5.26463">
        <ele>100.87</ele>
        <time>2019-02-03T11:43:46Z</time>
      </trkpt>
      <trkpt lat="43.51915" lon="5.26443">
        <ele>98.54</ele>
        <time>2019-02-03T11:44:00Z</time>
      </trkpt>
      <trkpt lat="43.51924" lon="5.26422">
        <ele>97.44</ele>
        <time>2019-02-03T11:44:12Z</time>
      </trkpt>
      <trkpt lat="43.5193" lon="5.26411">
        <ele>97.07</ele>
        <time>2019-02-03T11:44:21Z</time>
      </trkpt>
      <trkpt lat="43.51933" lon="5.26396">
        <ele>96.55</ele>
        <time>2019-02-03T11:44:28Z</time>
      </trkpt>
      <trkpt lat="43.51937" lon="5.26383">
        <ele>96.77</ele>
        <time>2019-02-03T11:44:36Z</time>
      </trkpt>
      <trkpt lat="43.51939" lon="5.26369">
        <ele>96.64</ele>
        <time>2019-02-03T11:44:42Z</time>
      </trkpt>
      <trkpt lat="43.51945" lon="5.26335">
        <ele>95.62</ele>
        <time>2019-02-03T11:45:00Z</time>
      </trkpt>
      <trkpt lat="43.51945" lon="5.26325">
        <ele>94.54</ele>
        <time>2019-02-03T11:45:07Z</time>
      </trkpt>
      <trkpt lat="43.51942" lon="5.26315">
        <ele>94.11</ele>
        <time>2019-02-03T11:45:11Z</time>
      </trkpt>
      <trkpt lat="43.51941" lon="5.26282">
        <ele>93.16</ele>
        <time>2019-02-03T11:45:21Z</time>
      </trkpt>
      <trkpt lat="43.51949" lon="5.26263">
        <ele>93.4</ele>
        <time>2019-02-03T11:45:32Z</time>
      </trkpt>
      <trkpt lat="43.5195" lon="5.26252">
        <ele>92.47</ele>
        <time>2019-02-03T11:45:41Z</time>
      </trkpt>
      <trkpt lat="43.51969" lon="5.26233">
        <ele>92.2</ele>
        <time>2019-02-03T11:45:58Z</time>
      </trkpt>
      <trkpt lat="43.51975" lon="5.26204">
        <ele>93.31</ele>
        <time>2019-02-03T11:46:14Z</time>
      </trkpt>
      <trkpt lat="43.51982" lon="5.26181">
        <ele>95.34</ele>
        <time>2019-02-03T11:46:28Z</time>
      </trkpt>
      <trkpt lat="43.51984" lon="5.26172">
        <ele>95.55</ele>
        <time>2019-02-03T11:46:35Z</time>
      </trkpt>
      <trkpt lat="43.51985" lon="5.26167">
        <ele>95.54</ele>
        <time>2019-02-03T11:46:38Z</time>
      </trkpt>
      <trkpt lat="43.51984" lon="5.26157">
        <ele>95.88</ele>
        <time>2019-02-03T11:46:41Z</time>
      </trkpt>
      <trkpt lat="43.5198" lon="5.26145">
        <ele>96.58</ele>
        <time>2019-02-03T11:46:45Z</time>
      </trkpt>
      <trkpt lat="43.51986" lon="5.26135">
        <ele>97.06</ele>
        <time>2019-02-03T11:46:50Z</time>
      </trkpt>
      <trkpt lat="43.51988" lon="5.26129">
        <ele>97.21</ele>
        <time>2019-02-03T11:46:53Z</time>
      </trkpt>
      <trkpt lat="43.51989" lon="5.26115">
        <ele>97.76</ele>
        <time>2019-02-03T11:46:59Z</time>
      </trkpt>
      <trkpt lat="43.51988" lon="5.26112">
        <ele>97.94</ele>
        <time>2019-02-03T11:47:01Z</time>
      </trkpt>
      <trkpt lat="43.51993" lon="5.26096">
        <ele>98.13</ele>
        <time>2019-02-03T11:47:10Z</time>
      </trkpt>
      <trkpt lat="43.52005" lon="5.26089">
        <ele>97.44</ele>
        <time>2019-02-03T11:47:16Z</time>
      </trkpt>
      <trkpt lat="43.52016" lon="5.26076">
        <ele>98.13</ele>
        <time>2019-02-03T11:47:24Z</time>
      </trkpt>
      <trkpt lat="43.52036" lon="5.2605">
        <ele>98.66</ele>
        <time>2019-02-03T11:47:38Z</time>
      </trkpt>
      <trkpt lat="43.52041" lon="5.26044">
        <ele>98.97</ele>
        <time>2019-02-03T11:47:42Z</time>
      </trkpt>
      <trkpt lat="43.5205" lon="5.26027">
        <ele>99.11</ele>
        <time>2019-02-03T11:47:52Z</time>
      </trkpt>
      <trkpt lat="43.5206" lon="5.2601">
        <ele>97.36</ele>
        <time>2019-02-03T11:48:04Z</time>
      </trkpt>
      <trkpt lat="43.52062" lon="5.26007">
        <ele>96.73</ele>
        <time>2019-02-03T11:48:07Z</time>
      </trkpt>
      <trkpt lat="43.5207" lon="5.25998">
        <ele>97.57</ele>
        <time>2019-02-03T11:48:15Z</time>
      </trkpt>
      <trkpt lat="43.52085" lon="5.25975">
        <ele>98.97</ele>
        <time>2019-02-03T11:48:32Z</time>
      </trkpt>
      <trkpt lat="43.52093" lon="5.25952">
        <ele>98.15</ele>
        <time>2019-02-03T11:48:44Z</time>
      </trkpt>
      <trkpt lat="43.52097" lon="5.25927">
        <ele>96.93</ele>
        <time>2019-02-03T11:48:55Z</time>
      </trkpt>
      <trkpt lat="43.52097" lon="5.25918">
        <ele>96.68</ele>
        <time>2019-02-03T11:48:59Z</time>
      </trkpt>
      <trkpt lat="43.52107" lon="5.25883">
        <ele>95.95</ele>
        <time>2019-02-03T11:49:16Z</time>
      </trkpt>
      <trkpt lat="43.52109" lon="5.25874">
        <ele>96.39</ele>
        <time>2019-02-03T11:49:21Z</time>
      </trkpt>
      <trkpt lat="43.52108" lon="5.25872">
        <ele>96.62</ele>
        <time>2019-02-03T11:49:23Z</time>
      </trkpt>
      <trkpt lat="43.52096" lon="5.2587">
        <ele>97.03</ele>
        <time>2019-02-03T11:49:33Z</time>
      </trkpt>
      <trkpt lat="43.52091" lon="5.25867">
        <ele>97.1</ele>
        <time>2019-02-03T11:49:37Z</time>
      </trkpt>
      <trkpt lat="43.52073" lon="5.25867">
        <ele>97.68</ele>
        <time>2019-02-03T11:49:51Z</time>
      </trkpt>
      <trkpt lat="43.52054" lon="5.25869">
        <ele>98.32</ele>
        <time>2019-02-03T11:50:05Z</time>
      </trkpt>
      <trkpt lat="43.52046" lon="5.25864">
        <ele>98.79</ele>
        <time>2019-02-03T11:50:10Z</time>
      </trkpt>
      <trkpt lat="43.52033" lon="5.25862">
        <ele>99.71</ele>
        <time>2019-02-03T11:50:18Z</time>
      </trkpt>
      <trkpt lat="43.52017" lon="5.25858">
        <ele>100.6</ele>
        <time>2019-02-03T11:50:29Z</time>
      </trkpt>
      <trkpt lat="43.52002" lon="5.25852">
        <ele>100.5</ele>
        <time>2019-02-03T11:50:42Z</time>
      </trkpt>
      <trkpt lat="43.51983" lon="5.25837">
        <ele>101.9</ele>
        <time>2019-02-03T11:50:57Z</time>
      </trkpt>
      <trkpt lat="43.5198" lon="5.25837">
        <ele>102.19</ele>
        <time>2019-02-03T11:50:59Z</time>
      </trkpt>
      <trkpt lat="43.51966" lon="5.25823">
        <ele>102.61</ele>
        <time>2019-02-03T11:51:11Z</time>
      </trkpt>
      <trkpt lat="43.51962" lon="5.25821">
        <ele>102.49</ele>
        <time>2019-02-03T11:51:14Z</time>
      </trkpt>
      <trkpt lat="43.51944" lon="5.25808">
        <ele>102.47</ele>
        <time>2019-02-03T11:51:28Z</time>
      </trkpt>
      <trkpt lat="43.51938" lon="5.25806">
        <ele>102.12</ele>
        <time>2019-02-03T11:51:43Z</time>
      </trkpt>
    </trkseg>
  </trk>
</gpx>